<?xml version="1.0" encoding="UTF-8" standalone="no" ?>
<gpx xmlns="http://www.topografix.com/GPX/1/1" xmlns:xsi="http://www.w3.org/2001/XMLSchema-instance" xsi:schemaLocation="http://www.topografix.com/GPX/1/1 http://www.topografix.com/GPX/1/1/gpx.xsd" version="1.1" creator="VisuGPX - https://www.visugpx.com">
  <metadata>
    <name>Maroc2011 - Midelt à Imilchil</name>
    <desc><![CDATA[Le tracés de Midelt à Imilchil, empruntant le cirque de Jaffar.]]></desc>
  </metadata>
  <trk>
    <name><![CDATA[midelt à imilchil]]></name>
    <trkseg>
      <trkpt lat="32.64498" lon="-4.77289">
        <ele>1560.794</ele>
        <time>2011-04-21T07:09:05Z</time>
      </trkpt>
      <trkpt lat="32.64488" lon="-4.77286">
        <ele>1575.689</ele>
        <time>2011-04-21T07:11:02Z</time>
      </trkpt>
      <trkpt lat="32.64491" lon="-4.77244">
        <ele>1574.989</ele>
        <time>2011-04-21T07:11:19Z</time>
      </trkpt>
      <trkpt lat="32.64519" lon="-4.7721">
        <ele>1575.288</ele>
        <time>2011-04-21T07:11:23Z</time>
      </trkpt>
      <trkpt lat="32.64472" lon="-4.77217">
        <ele>1572.294</ele>
        <time>2011-04-21T07:11:32Z</time>
      </trkpt>
      <trkpt lat="32.64527" lon="-4.772">
        <ele>1568.56</ele>
        <time>2011-04-21T07:11:45Z</time>
      </trkpt>
      <trkpt lat="32.64487" lon="-4.77136">
        <ele>1571.672</ele>
        <time>2011-04-21T07:12:00Z</time>
      </trkpt>
      <trkpt lat="32.63917" lon="-4.76956">
        <ele>1606.178</ele>
        <time>2011-04-21T07:13:39Z</time>
      </trkpt>
      <trkpt lat="32.63607" lon="-4.77416">
        <ele>1604.917</ele>
        <time>2011-04-21T07:14:26Z</time>
      </trkpt>
      <trkpt lat="32.63541" lon="-4.77872">
        <ele>1621.079</ele>
        <time>2011-04-21T07:15:04Z</time>
      </trkpt>
      <trkpt lat="32.63001" lon="-4.78461">
        <ele>1662.379</ele>
        <time>2011-04-21T07:16:07Z</time>
      </trkpt>
      <trkpt lat="32.62371" lon="-4.79078">
        <ele>1680.921</ele>
        <time>2011-04-21T07:17:19Z</time>
      </trkpt>
      <trkpt lat="32.61809" lon="-4.79729">
        <ele>1723.206</ele>
        <time>2011-04-21T07:18:30Z</time>
      </trkpt>
      <trkpt lat="32.61578" lon="-4.7991">
        <ele>1731.67</ele>
        <time>2011-04-21T07:18:59Z</time>
      </trkpt>
      <trkpt lat="32.61167" lon="-4.80591">
        <ele>1772.752</ele>
        <time>2011-04-21T07:20:08Z</time>
      </trkpt>
      <trkpt lat="32.60881" lon="-4.80895">
        <ele>1792.155</ele>
        <time>2011-04-21T07:20:42Z</time>
      </trkpt>
      <trkpt lat="32.60776" lon="-4.81094">
        <ele>1801.221</ele>
        <time>2011-04-21T07:21:00Z</time>
      </trkpt>
      <trkpt lat="32.60694" lon="-4.81214">
        <ele>1805.77</ele>
        <time>2011-04-21T07:21:12Z</time>
      </trkpt>
      <trkpt lat="32.60522" lon="-4.81445">
        <ele>1806.025</ele>
        <time>2011-04-21T07:21:37Z</time>
      </trkpt>
      <trkpt lat="32.60504" lon="-4.81608">
        <ele>1816.441</ele>
        <time>2011-04-21T07:21:50Z</time>
      </trkpt>
      <trkpt lat="32.60454" lon="-4.81729">
        <ele>1818.55</ele>
        <time>2011-04-21T07:22:01Z</time>
      </trkpt>
      <trkpt lat="32.6027" lon="-4.8201">
        <ele>1811.318</ele>
        <time>2011-04-21T07:24:31Z</time>
      </trkpt>
      <trkpt lat="32.59904" lon="-4.82315">
        <ele>1815.099</ele>
        <time>2011-04-21T07:28:10Z</time>
      </trkpt>
      <trkpt lat="32.59877" lon="-4.82425">
        <ele>1815.729</ele>
        <time>2011-04-21T07:28:22Z</time>
      </trkpt>
      <trkpt lat="32.59948" lon="-4.826">
        <ele>1816.312</ele>
        <time>2011-04-21T07:28:48Z</time>
      </trkpt>
      <trkpt lat="32.59711" lon="-4.82842">
        <ele>1834.929</ele>
        <time>2011-04-21T07:29:21Z</time>
      </trkpt>
      <trkpt lat="32.59633" lon="-4.82965">
        <ele>1834.187</ele>
        <time>2011-04-21T07:29:39Z</time>
      </trkpt>
      <trkpt lat="32.59658" lon="-4.83115">
        <ele>1838.723</ele>
        <time>2011-04-21T07:30:06Z</time>
      </trkpt>
      <trkpt lat="32.59571" lon="-4.83567">
        <ele>1833.176</ele>
        <time>2011-04-21T07:31:01Z</time>
      </trkpt>
      <trkpt lat="32.59246" lon="-4.8425">
        <ele>1855.824</ele>
        <time>2011-04-21T07:32:57Z</time>
      </trkpt>
      <trkpt lat="32.5929" lon="-4.84362">
        <ele>1853.726</ele>
        <time>2011-04-21T07:33:29Z</time>
      </trkpt>
      <trkpt lat="32.59099" lon="-4.84606">
        <ele>1881.756</ele>
        <time>2011-04-21T07:34:04Z</time>
      </trkpt>
      <trkpt lat="32.59038" lon="-4.85034">
        <ele>1885.303</ele>
        <time>2011-04-21T07:35:07Z</time>
      </trkpt>
      <trkpt lat="32.58767" lon="-4.85167">
        <ele>1914.853</ele>
        <time>2011-04-21T07:35:52Z</time>
      </trkpt>
      <trkpt lat="32.5856" lon="-4.85025">
        <ele>1944.337</ele>
        <time>2011-04-21T07:36:33Z</time>
      </trkpt>
      <trkpt lat="32.58405" lon="-4.85021">
        <ele>1967.273</ele>
        <time>2011-04-21T07:37:02Z</time>
      </trkpt>
      <trkpt lat="32.58285" lon="-4.85027">
        <ele>1976.193</ele>
        <time>2011-04-21T07:37:21Z</time>
      </trkpt>
      <trkpt lat="32.582" lon="-4.8509">
        <ele>1986.379</ele>
        <time>2011-04-21T07:37:38Z</time>
      </trkpt>
      <trkpt lat="32.58195" lon="-4.85173">
        <ele>1992.69</ele>
        <time>2011-04-21T07:37:53Z</time>
      </trkpt>
      <trkpt lat="32.58033" lon="-4.85364">
        <ele>2004.281</ele>
        <time>2011-04-21T07:40:02Z</time>
      </trkpt>
      <trkpt lat="32.58014" lon="-4.85381">
        <ele>2004.886</ele>
        <time>2011-04-21T07:40:10Z</time>
      </trkpt>
      <trkpt lat="32.57946" lon="-4.85726">
        <ele>2013.811</ele>
        <time>2011-04-21T07:41:07Z</time>
      </trkpt>
      <trkpt lat="32.57966" lon="-4.85936">
        <ele>2011.679</ele>
        <time>2011-04-21T07:41:26Z</time>
      </trkpt>
      <trkpt lat="32.57914" lon="-4.86122">
        <ele>2013.965</ele>
        <time>2011-04-21T07:42:11Z</time>
      </trkpt>
      <trkpt lat="32.58" lon="-4.86201">
        <ele>2021.92</ele>
        <time>2011-04-21T07:42:31Z</time>
      </trkpt>
      <trkpt lat="32.58016" lon="-4.8625">
        <ele>2023.687</ele>
        <time>2011-04-21T07:42:35Z</time>
      </trkpt>
      <trkpt lat="32.5807" lon="-4.86541">
        <ele>2013.518</ele>
        <time>2011-04-21T07:43:06Z</time>
      </trkpt>
      <trkpt lat="32.58019" lon="-4.86689">
        <ele>2004.691</ele>
        <time>2011-04-21T07:43:44Z</time>
      </trkpt>
      <trkpt lat="32.58111" lon="-4.8691">
        <ele>2020.3</ele>
        <time>2011-04-21T07:44:29Z</time>
      </trkpt>
      <trkpt lat="32.58066" lon="-4.87057">
        <ele>2008.342</ele>
        <time>2011-04-21T07:44:51Z</time>
      </trkpt>
      <trkpt lat="32.58156" lon="-4.87472">
        <ele>2012.628</ele>
        <time>2011-04-21T07:45:47Z</time>
      </trkpt>
      <trkpt lat="32.58163" lon="-4.87836">
        <ele>2010.644</ele>
        <time>2011-04-21T07:46:17Z</time>
      </trkpt>
      <trkpt lat="32.58173" lon="-4.88059">
        <ele>2002.33</ele>
        <time>2011-04-21T07:46:37Z</time>
      </trkpt>
      <trkpt lat="32.581" lon="-4.88138">
        <ele>1992.956</ele>
        <time>2011-04-21T07:47:01Z</time>
      </trkpt>
      <trkpt lat="32.57944" lon="-4.88151">
        <ele>1983.229</ele>
        <time>2011-04-21T07:47:51Z</time>
      </trkpt>
      <trkpt lat="32.58094" lon="-4.88464">
        <ele>1999.672</ele>
        <time>2011-04-21T07:48:45Z</time>
      </trkpt>
      <trkpt lat="32.58001" lon="-4.88737">
        <ele>2000.152</ele>
        <time>2011-04-21T07:49:23Z</time>
      </trkpt>
      <trkpt lat="32.5786" lon="-4.88806">
        <ele>1993.94</ele>
        <time>2011-04-21T07:49:54Z</time>
      </trkpt>
      <trkpt lat="32.57946" lon="-4.8893">
        <ele>2001.75</ele>
        <time>2011-04-21T07:50:18Z</time>
      </trkpt>
      <trkpt lat="32.57917" lon="-4.89028">
        <ele>2012.811</ele>
        <time>2011-04-21T07:50:31Z</time>
      </trkpt>
      <trkpt lat="32.57884" lon="-4.89085">
        <ele>2014.731</ele>
        <time>2011-04-21T07:50:38Z</time>
      </trkpt>
      <trkpt lat="32.57853" lon="-4.89127">
        <ele>2015.015</ele>
        <time>2011-04-21T07:50:45Z</time>
      </trkpt>
      <trkpt lat="32.57517" lon="-4.89261">
        <ele>2018.426</ele>
        <time>2011-04-21T07:51:43Z</time>
      </trkpt>
      <trkpt lat="32.57464" lon="-4.89479">
        <ele>2041.365</ele>
        <time>2011-04-21T07:52:20Z</time>
      </trkpt>
      <trkpt lat="32.57377" lon="-4.89561">
        <ele>2056.547</ele>
        <time>2011-04-21T07:52:35Z</time>
      </trkpt>
      <trkpt lat="32.57272" lon="-4.89669">
        <ele>2066.27</ele>
        <time>2011-04-21T07:52:49Z</time>
      </trkpt>
      <trkpt lat="32.57173" lon="-4.89744">
        <ele>2073.15</ele>
        <time>2011-04-21T07:53:03Z</time>
      </trkpt>
      <trkpt lat="32.56857" lon="-4.90068">
        <ele>2066.221</ele>
        <time>2011-04-21T07:54:32Z</time>
      </trkpt>
      <trkpt lat="32.56483" lon="-4.89908">
        <ele>2104.439</ele>
        <time>2011-04-21T07:58:19Z</time>
      </trkpt>
      <trkpt lat="32.56329" lon="-4.90027">
        <ele>2116.724</ele>
        <time>2011-04-21T08:03:51Z</time>
      </trkpt>
      <trkpt lat="32.56279" lon="-4.9016">
        <ele>2119.177</ele>
        <time>2011-04-21T08:04:13Z</time>
      </trkpt>
      <trkpt lat="32.55983" lon="-4.89935">
        <ele>2179.983</ele>
        <time>2011-04-21T08:05:11Z</time>
      </trkpt>
      <trkpt lat="32.55643" lon="-4.89745">
        <ele>2206.864</ele>
        <time>2011-04-21T08:06:11Z</time>
      </trkpt>
      <trkpt lat="32.55355" lon="-4.89467">
        <ele>2251.445</ele>
        <time>2011-04-21T08:07:53Z</time>
      </trkpt>
      <trkpt lat="32.55221" lon="-4.89428">
        <ele>2261.191</ele>
        <time>2011-04-21T08:08:25Z</time>
      </trkpt>
      <trkpt lat="32.54999" lon="-4.89214">
        <ele>2248.872</ele>
        <time>2011-04-21T08:23:18Z</time>
      </trkpt>
      <trkpt lat="32.54984" lon="-4.8929">
        <ele>2243.953</ele>
        <time>2011-04-21T08:23:48Z</time>
      </trkpt>
      <trkpt lat="32.54839" lon="-4.8926">
        <ele>2233.866</ele>
        <time>2011-04-21T08:24:49Z</time>
      </trkpt>
      <trkpt lat="32.54736" lon="-4.89217">
        <ele>2221.828</ele>
        <time>2011-04-21T08:25:54Z</time>
      </trkpt>
      <trkpt lat="32.54684" lon="-4.89076">
        <ele>2212.766</ele>
        <time>2011-04-21T08:27:02Z</time>
      </trkpt>
      <trkpt lat="32.54299" lon="-4.8881">
        <ele>2175.406</ele>
        <time>2011-04-21T08:53:30Z</time>
      </trkpt>
      <trkpt lat="32.54323" lon="-4.88889">
        <ele>2178.417</ele>
        <time>2011-04-21T08:53:48Z</time>
      </trkpt>
      <trkpt lat="32.54424" lon="-4.88925">
        <ele>2182.71</ele>
        <time>2011-04-21T08:54:06Z</time>
      </trkpt>
      <trkpt lat="32.5444" lon="-4.88962">
        <ele>2180.302</ele>
        <time>2011-04-21T08:54:18Z</time>
      </trkpt>
      <trkpt lat="32.54264" lon="-4.89262">
        <ele>2154.18</ele>
        <time>2011-04-21T08:55:23Z</time>
      </trkpt>
      <trkpt lat="32.54373" lon="-4.89529">
        <ele>2112.23</ele>
        <time>2011-04-21T08:57:33Z</time>
      </trkpt>
      <trkpt lat="32.54223" lon="-4.8941">
        <ele>2143.559</ele>
        <time>2011-04-21T08:59:00Z</time>
      </trkpt>
      <trkpt lat="32.54131" lon="-4.8966">
        <ele>2113.75</ele>
        <time>2011-04-21T09:01:51Z</time>
      </trkpt>
      <trkpt lat="32.54045" lon="-4.89658">
        <ele>2099.334</ele>
        <time>2011-04-21T09:02:25Z</time>
      </trkpt>
      <trkpt lat="32.54066" lon="-4.89744">
        <ele>2087.524</ele>
        <time>2011-04-21T09:02:57Z</time>
      </trkpt>
      <trkpt lat="32.53807" lon="-4.89617">
        <ele>2102.454</ele>
        <time>2011-04-21T09:04:19Z</time>
      </trkpt>
      <trkpt lat="32.5386" lon="-4.89666">
        <ele>2100.041</ele>
        <time>2011-04-21T09:18:13Z</time>
      </trkpt>
      <trkpt lat="32.53819" lon="-4.89841">
        <ele>2111.505</ele>
        <time>2011-04-21T09:18:54Z</time>
      </trkpt>
      <trkpt lat="32.53806" lon="-4.89895">
        <ele>2113.593</ele>
        <time>2011-04-21T09:19:09Z</time>
      </trkpt>
      <trkpt lat="32.53937" lon="-4.89904">
        <ele>2124.143</ele>
        <time>2011-04-21T09:21:02Z</time>
      </trkpt>
      <trkpt lat="32.53942" lon="-4.89934">
        <ele>2125.638</ele>
        <time>2011-04-21T09:21:07Z</time>
      </trkpt>
      <trkpt lat="32.53883" lon="-4.89902">
        <ele>2131.316</ele>
        <time>2011-04-21T09:21:26Z</time>
      </trkpt>
      <trkpt lat="32.53861" lon="-4.89988">
        <ele>2139.187</ele>
        <time>2011-04-21T09:21:43Z</time>
      </trkpt>
      <trkpt lat="32.53734" lon="-4.90047">
        <ele>2151.416</ele>
        <time>2011-04-21T09:22:09Z</time>
      </trkpt>
      <trkpt lat="32.53695" lon="-4.90094">
        <ele>2156.021</ele>
        <time>2011-04-21T09:22:28Z</time>
      </trkpt>
      <trkpt lat="32.5403" lon="-4.90088">
        <ele>2178.782</ele>
        <time>2011-04-21T09:23:37Z</time>
      </trkpt>
      <trkpt lat="32.54123" lon="-4.90084">
        <ele>2184.861</ele>
        <time>2011-04-21T09:23:53Z</time>
      </trkpt>
      <trkpt lat="32.54175" lon="-4.90091">
        <ele>2187.562</ele>
        <time>2011-04-21T09:24:02Z</time>
      </trkpt>
      <trkpt lat="32.54164" lon="-4.90133">
        <ele>2188.357</ele>
        <time>2011-04-21T09:24:10Z</time>
      </trkpt>
      <trkpt lat="32.54151" lon="-4.90212">
        <ele>2187.616</ele>
        <time>2011-04-21T09:24:22Z</time>
      </trkpt>
      <trkpt lat="32.5425" lon="-4.90284">
        <ele>2188.62</ele>
        <time>2011-04-21T09:24:45Z</time>
      </trkpt>
      <trkpt lat="32.54233" lon="-4.90365">
        <ele>2185.567</ele>
        <time>2011-04-21T09:25:00Z</time>
      </trkpt>
      <trkpt lat="32.54134" lon="-4.90411">
        <ele>2181.983</ele>
        <time>2011-04-21T09:25:18Z</time>
      </trkpt>
      <trkpt lat="32.54028" lon="-4.90573">
        <ele>2176.125</ele>
        <time>2011-04-21T09:25:53Z</time>
      </trkpt>
      <trkpt lat="32.54043" lon="-4.9071">
        <ele>2173.542</ele>
        <time>2011-04-21T09:26:14Z</time>
      </trkpt>
      <trkpt lat="32.53964" lon="-4.90846">
        <ele>2169.554</ele>
        <time>2011-04-21T09:26:46Z</time>
      </trkpt>
      <trkpt lat="32.54179" lon="-4.90919">
        <ele>2168.729</ele>
        <time>2011-04-21T09:27:32Z</time>
      </trkpt>
      <trkpt lat="32.54169" lon="-4.90994">
        <ele>2166.049</ele>
        <time>2011-04-21T09:27:46Z</time>
      </trkpt>
      <trkpt lat="32.54057" lon="-4.9103">
        <ele>2162.268</ele>
        <time>2011-04-21T09:28:12Z</time>
      </trkpt>
      <trkpt lat="32.54057" lon="-4.91292">
        <ele>2157.006</ele>
        <time>2011-04-21T09:29:12Z</time>
      </trkpt>
      <trkpt lat="32.54239" lon="-4.91487">
        <ele>2152.745</ele>
        <time>2011-04-21T09:30:01Z</time>
      </trkpt>
      <trkpt lat="32.54318" lon="-4.91659">
        <ele>2148.503</ele>
        <time>2011-04-21T09:30:35Z</time>
      </trkpt>
      <trkpt lat="32.54254" lon="-4.92246">
        <ele>2146.514</ele>
        <time>2011-04-21T09:32:55Z</time>
      </trkpt>
      <trkpt lat="32.54382" lon="-4.92306">
        <ele>2151.096</ele>
        <time>2011-04-21T09:33:19Z</time>
      </trkpt>
      <trkpt lat="32.54365" lon="-4.92385">
        <ele>2152.714</ele>
        <time>2011-04-21T09:33:35Z</time>
      </trkpt>
      <trkpt lat="32.54359" lon="-4.92469">
        <ele>2153.772</ele>
        <time>2011-04-21T09:33:52Z</time>
      </trkpt>
      <trkpt lat="32.54396" lon="-4.92598">
        <ele>2153.225</ele>
        <time>2011-04-21T09:34:13Z</time>
      </trkpt>
      <trkpt lat="32.54286" lon="-4.92708">
        <ele>2153.737</ele>
        <time>2011-04-21T09:34:46Z</time>
      </trkpt>
      <trkpt lat="32.54345" lon="-4.92725">
        <ele>2153.86</ele>
        <time>2011-04-21T09:34:59Z</time>
      </trkpt>
      <trkpt lat="32.54361" lon="-4.92818">
        <ele>2152.701</ele>
        <time>2011-04-21T09:35:25Z</time>
      </trkpt>
      <trkpt lat="32.54287" lon="-4.9283">
        <ele>2154.363</ele>
        <time>2011-04-21T09:35:45Z</time>
      </trkpt>
      <trkpt lat="32.54384" lon="-4.9295">
        <ele>2160.264</ele>
        <time>2011-04-21T09:36:13Z</time>
      </trkpt>
      <trkpt lat="32.54414" lon="-4.93103">
        <ele>2167.29</ele>
        <time>2011-04-21T09:36:37Z</time>
      </trkpt>
      <trkpt lat="32.54403" lon="-4.93137">
        <ele>2168.04</ele>
        <time>2011-04-21T09:36:48Z</time>
      </trkpt>
      <trkpt lat="32.54482" lon="-4.93212">
        <ele>2173.324</ele>
        <time>2011-04-21T09:37:05Z</time>
      </trkpt>
      <trkpt lat="32.5451" lon="-4.93273">
        <ele>2175.871</ele>
        <time>2011-04-21T09:37:15Z</time>
      </trkpt>
      <trkpt lat="32.54513" lon="-4.93283">
        <ele>2175.862</ele>
        <time>2011-04-21T09:37:17Z</time>
      </trkpt>
      <trkpt lat="32.54515" lon="-4.93303">
        <ele>2175.37</ele>
        <time>2011-04-21T09:37:20Z</time>
      </trkpt>
      <trkpt lat="32.54446" lon="-4.93452">
        <ele>2174.9</ele>
        <time>2011-04-21T09:37:51Z</time>
      </trkpt>
      <trkpt lat="32.54347" lon="-4.93408">
        <ele>2175.355</ele>
        <time>2011-04-21T09:38:16Z</time>
      </trkpt>
      <trkpt lat="32.54357" lon="-4.93705">
        <ele>2179.996</ele>
        <time>2011-04-21T09:39:00Z</time>
      </trkpt>
      <trkpt lat="32.54336" lon="-4.93728">
        <ele>2179.477</ele>
        <time>2011-04-21T09:39:06Z</time>
      </trkpt>
      <trkpt lat="32.54118" lon="-4.93632">
        <ele>2172.249</ele>
        <time>2011-04-21T09:39:58Z</time>
      </trkpt>
      <trkpt lat="32.53979" lon="-4.93685">
        <ele>2171.603</ele>
        <time>2011-04-21T09:40:30Z</time>
      </trkpt>
      <trkpt lat="32.5394" lon="-4.93857">
        <ele>2169.122</ele>
        <time>2011-04-21T09:41:12Z</time>
      </trkpt>
      <trkpt lat="32.54059" lon="-4.93907">
        <ele>2173.566</ele>
        <time>2011-04-21T09:41:41Z</time>
      </trkpt>
      <trkpt lat="32.54116" lon="-4.94094">
        <ele>2173.791</ele>
        <time>2011-04-21T09:42:15Z</time>
      </trkpt>
      <trkpt lat="32.54222" lon="-4.94181">
        <ele>2180.858</ele>
        <time>2011-04-21T09:43:29Z</time>
      </trkpt>
      <trkpt lat="32.54267" lon="-4.94285">
        <ele>2180.619</ele>
        <time>2011-04-21T09:43:43Z</time>
      </trkpt>
      <trkpt lat="32.54194" lon="-4.94308">
        <ele>2181.139</ele>
        <time>2011-04-21T09:43:50Z</time>
      </trkpt>
      <trkpt lat="32.54093" lon="-4.94319">
        <ele>2176.066</ele>
        <time>2011-04-21T09:44:08Z</time>
      </trkpt>
      <trkpt lat="32.54071" lon="-4.94443">
        <ele>2170.82</ele>
        <time>2011-04-21T09:44:26Z</time>
      </trkpt>
      <trkpt lat="32.54186" lon="-4.9483">
        <ele>2162.82</ele>
        <time>2011-04-21T09:45:31Z</time>
      </trkpt>
      <trkpt lat="32.54173" lon="-4.94943">
        <ele>2156.202</ele>
        <time>2011-04-21T09:45:44Z</time>
      </trkpt>
      <trkpt lat="32.54089" lon="-4.95079">
        <ele>2147.442</ele>
        <time>2011-04-21T09:46:04Z</time>
      </trkpt>
      <trkpt lat="32.53945" lon="-4.95088">
        <ele>2142.226</ele>
        <time>2011-04-21T09:46:36Z</time>
      </trkpt>
      <trkpt lat="32.54027" lon="-4.95256">
        <ele>2132.92</ele>
        <time>2011-04-21T09:47:04Z</time>
      </trkpt>
      <trkpt lat="32.53985" lon="-4.95307">
        <ele>2129.291</ele>
        <time>2011-04-21T09:49:49Z</time>
      </trkpt>
      <trkpt lat="32.54079" lon="-4.95447">
        <ele>2115.798</ele>
        <time>2011-04-21T09:50:24Z</time>
      </trkpt>
      <trkpt lat="32.53906" lon="-4.95512">
        <ele>2108.541</ele>
        <time>2011-04-21T09:51:18Z</time>
      </trkpt>
      <trkpt lat="32.54002" lon="-4.95679">
        <ele>2114.519</ele>
        <time>2011-04-21T09:51:41Z</time>
      </trkpt>
      <trkpt lat="32.53985" lon="-4.95884">
        <ele>2107.248</ele>
        <time>2011-04-21T09:52:07Z</time>
      </trkpt>
      <trkpt lat="32.54174" lon="-4.9609">
        <ele>2097.571</ele>
        <time>2011-04-21T09:52:42Z</time>
      </trkpt>
      <trkpt lat="32.54533" lon="-4.96167">
        <ele>2080.692</ele>
        <time>2011-04-21T09:53:24Z</time>
      </trkpt>
      <trkpt lat="32.54704" lon="-4.96148">
        <ele>2067.749</ele>
        <time>2011-04-21T09:53:54Z</time>
      </trkpt>
      <trkpt lat="32.5467" lon="-4.96298">
        <ele>2061.85</ele>
        <time>2011-04-21T09:54:10Z</time>
      </trkpt>
      <trkpt lat="32.54572" lon="-4.96385">
        <ele>2057.394</ele>
        <time>2011-04-21T09:54:26Z</time>
      </trkpt>
      <trkpt lat="32.53971" lon="-4.96342">
        <ele>2062.845</ele>
        <time>2011-04-21T09:56:06Z</time>
      </trkpt>
      <trkpt lat="32.53937" lon="-4.96392">
        <ele>2063.427</ele>
        <time>2011-04-21T09:56:17Z</time>
      </trkpt>
      <trkpt lat="32.5385" lon="-4.96546">
        <ele>2061.593</ele>
        <time>2011-04-21T09:56:48Z</time>
      </trkpt>
      <trkpt lat="32.53858" lon="-4.96716">
        <ele>2056.567</ele>
        <time>2011-04-21T09:57:09Z</time>
      </trkpt>
      <trkpt lat="32.53799" lon="-4.96919">
        <ele>2052.062</ele>
        <time>2011-04-21T09:57:37Z</time>
      </trkpt>
      <trkpt lat="32.53732" lon="-4.96948">
        <ele>2050.842</ele>
        <time>2011-04-21T09:57:54Z</time>
      </trkpt>
      <trkpt lat="32.53714" lon="-4.96979">
        <ele>2050.021</ele>
        <time>2011-04-21T09:57:58Z</time>
      </trkpt>
      <trkpt lat="32.53686" lon="-4.97191">
        <ele>2046.225</ele>
        <time>2011-04-21T09:58:28Z</time>
      </trkpt>
      <trkpt lat="32.5355" lon="-4.97369">
        <ele>2049.265</ele>
        <time>2011-04-21T09:59:07Z</time>
      </trkpt>
      <trkpt lat="32.53458" lon="-4.97325">
        <ele>2054.434</ele>
        <time>2011-04-21T10:00:04Z</time>
      </trkpt>
      <trkpt lat="32.53527" lon="-4.9747">
        <ele>2047.921</ele>
        <time>2011-04-21T10:00:55Z</time>
      </trkpt>
      <trkpt lat="32.53801" lon="-4.97451">
        <ele>2046.481</ele>
        <time>2011-04-21T10:01:53Z</time>
      </trkpt>
      <trkpt lat="32.53738" lon="-4.9761">
        <ele>2055.059</ele>
        <time>2011-04-21T10:02:51Z</time>
      </trkpt>
      <trkpt lat="32.53674" lon="-4.9782">
        <ele>2054.993</ele>
        <time>2011-04-21T10:03:25Z</time>
      </trkpt>
      <trkpt lat="32.53639" lon="-4.97892">
        <ele>2054.099</ele>
        <time>2011-04-21T10:03:42Z</time>
      </trkpt>
      <trkpt lat="32.53492" lon="-4.97818">
        <ele>2053.667</ele>
        <time>2011-04-21T10:04:09Z</time>
      </trkpt>
      <trkpt lat="32.53467" lon="-4.9781">
        <ele>2053.28</ele>
        <time>2011-04-21T10:04:16Z</time>
      </trkpt>
      <trkpt lat="32.53488" lon="-4.97869">
        <ele>2054.762</ele>
        <time>2011-04-21T10:04:25Z</time>
      </trkpt>
      <trkpt lat="32.53551" lon="-4.97946">
        <ele>2053.332</ele>
        <time>2011-04-21T10:04:38Z</time>
      </trkpt>
      <trkpt lat="32.53469" lon="-4.98013">
        <ele>2051.558</ele>
        <time>2011-04-21T10:05:09Z</time>
      </trkpt>
      <trkpt lat="32.53532" lon="-4.98243">
        <ele>2051.491</ele>
        <time>2011-04-21T10:05:42Z</time>
      </trkpt>
      <trkpt lat="32.53453" lon="-4.98318">
        <ele>2050.795</ele>
        <time>2011-04-21T10:05:58Z</time>
      </trkpt>
      <trkpt lat="32.53662" lon="-4.98589">
        <ele>2048.592</ele>
        <time>2011-04-21T10:06:46Z</time>
      </trkpt>
      <trkpt lat="32.53714" lon="-4.98773">
        <ele>2049.365</ele>
        <time>2011-04-21T10:07:08Z</time>
      </trkpt>
      <trkpt lat="32.53637" lon="-4.98883">
        <ele>2039.207</ele>
        <time>2011-04-21T10:09:01Z</time>
      </trkpt>
      <trkpt lat="32.53561" lon="-4.98771">
        <ele>2028.598</ele>
        <time>2011-04-21T10:09:26Z</time>
      </trkpt>
      <trkpt lat="32.53472" lon="-4.98793">
        <ele>2021.498</ele>
        <time>2011-04-21T10:09:48Z</time>
      </trkpt>
      <trkpt lat="32.53439" lon="-4.99144">
        <ele>2001.214</ele>
        <time>2011-04-21T10:10:37Z</time>
      </trkpt>
      <trkpt lat="32.53349" lon="-4.99003">
        <ele>1993.274</ele>
        <time>2011-04-21T10:11:06Z</time>
      </trkpt>
      <trkpt lat="32.53333" lon="-4.98847">
        <ele>1982.954</ele>
        <time>2011-04-21T10:11:29Z</time>
      </trkpt>
      <trkpt lat="32.53282" lon="-4.98829">
        <ele>1980.583</ele>
        <time>2011-04-21T10:11:45Z</time>
      </trkpt>
      <trkpt lat="32.53147" lon="-4.99105">
        <ele>1967.98</ele>
        <time>2011-04-21T10:12:25Z</time>
      </trkpt>
      <trkpt lat="32.52963" lon="-4.99154">
        <ele>1950.744</ele>
        <time>2011-04-21T10:13:09Z</time>
      </trkpt>
      <trkpt lat="32.53042" lon="-4.99282">
        <ele>1959.933</ele>
        <time>2011-04-21T10:13:46Z</time>
      </trkpt>
      <trkpt lat="32.53001" lon="-4.99376">
        <ele>1962.293</ele>
        <time>2011-04-21T10:14:01Z</time>
      </trkpt>
      <trkpt lat="32.53086" lon="-4.99653">
        <ele>1973.214</ele>
        <time>2011-04-21T10:14:33Z</time>
      </trkpt>
      <trkpt lat="32.53095" lon="-4.99712">
        <ele>1974.849</ele>
        <time>2011-04-21T10:14:36Z</time>
      </trkpt>
      <trkpt lat="32.53065" lon="-4.99789">
        <ele>1975.474</ele>
        <time>2011-04-21T10:14:43Z</time>
      </trkpt>
      <trkpt lat="32.53139" lon="-5.00172">
        <ele>1985.135</ele>
        <time>2011-04-21T10:15:16Z</time>
      </trkpt>
      <trkpt lat="32.53159" lon="-5.00234">
        <ele>1984.97</ele>
        <time>2011-04-21T10:15:21Z</time>
      </trkpt>
      <trkpt lat="32.53061" lon="-5.00508">
        <ele>1989.116</ele>
        <time>2011-04-21T10:15:42Z</time>
      </trkpt>
      <trkpt lat="32.5299" lon="-5.00797">
        <ele>1967.762</ele>
        <time>2011-04-21T10:16:07Z</time>
      </trkpt>
      <trkpt lat="32.52988" lon="-5.01376">
        <ele>1937.01</ele>
        <time>2011-04-21T10:16:49Z</time>
      </trkpt>
      <trkpt lat="32.53045" lon="-5.01571">
        <ele>1928.339</ele>
        <time>2011-04-21T10:17:04Z</time>
      </trkpt>
      <trkpt lat="32.53081" lon="-5.01619">
        <ele>1923.986</ele>
        <time>2011-04-21T10:17:10Z</time>
      </trkpt>
      <trkpt lat="32.52622" lon="-5.02785">
        <ele>1896.145</ele>
        <time>2011-04-21T10:18:51Z</time>
      </trkpt>
      <trkpt lat="32.525" lon="-5.02993">
        <ele>1894.608</ele>
        <time>2011-04-21T10:19:08Z</time>
      </trkpt>
      <trkpt lat="32.52373" lon="-5.03095">
        <ele>1888.893</ele>
        <time>2011-04-21T10:19:22Z</time>
      </trkpt>
      <trkpt lat="32.52402" lon="-5.03253">
        <ele>1880.88</ele>
        <time>2011-04-21T10:19:39Z</time>
      </trkpt>
      <trkpt lat="32.52317" lon="-5.03395">
        <ele>1873.15</ele>
        <time>2011-04-21T10:19:52Z</time>
      </trkpt>
      <trkpt lat="32.5238" lon="-5.03585">
        <ele>1872.281</ele>
        <time>2011-04-21T10:20:11Z</time>
      </trkpt>
      <trkpt lat="32.52384" lon="-5.03676">
        <ele>1870.792</ele>
        <time>2011-04-21T10:20:16Z</time>
      </trkpt>
      <trkpt lat="32.52203" lon="-5.04336">
        <ele>1834.775</ele>
        <time>2011-04-21T10:21:01Z</time>
      </trkpt>
      <trkpt lat="32.52007" lon="-5.04476">
        <ele>1826.338</ele>
        <time>2011-04-21T10:21:20Z</time>
      </trkpt>
      <trkpt lat="32.51906" lon="-5.05102">
        <ele>1811.947</ele>
        <time>2011-04-21T10:21:55Z</time>
      </trkpt>
      <trkpt lat="32.5186" lon="-5.05538">
        <ele>1795.141</ele>
        <time>2011-04-21T10:22:18Z</time>
      </trkpt>
      <trkpt lat="32.51786" lon="-5.05733">
        <ele>1778.532</ele>
        <time>2011-04-21T10:22:31Z</time>
      </trkpt>
      <trkpt lat="32.5179" lon="-5.05782">
        <ele>1776.394</ele>
        <time>2011-04-21T10:22:37Z</time>
      </trkpt>
      <trkpt lat="32.51924" lon="-5.05841">
        <ele>1783.05</ele>
        <time>2011-04-21T10:22:48Z</time>
      </trkpt>
      <trkpt lat="32.52124" lon="-5.05926">
        <ele>1782.709</ele>
        <time>2011-04-21T10:23:58Z</time>
      </trkpt>
      <trkpt lat="32.51776" lon="-5.05765">
        <ele>1777.307</ele>
        <time>2011-04-21T10:24:32Z</time>
      </trkpt>
      <trkpt lat="32.51599" lon="-5.06358">
        <ele>1752.4</ele>
        <time>2011-04-21T10:26:03Z</time>
      </trkpt>
      <trkpt lat="32.5179" lon="-5.06707">
        <ele>1740.647</ele>
        <time>2011-04-21T10:27:14Z</time>
      </trkpt>
      <trkpt lat="32.51738" lon="-5.07019">
        <ele>1749.85</ele>
        <time>2011-04-21T10:27:59Z</time>
      </trkpt>
      <trkpt lat="32.51765" lon="-5.07273">
        <ele>1745.145</ele>
        <time>2011-04-21T10:28:43Z</time>
      </trkpt>
      <trkpt lat="32.51833" lon="-5.07292">
        <ele>1743.708</ele>
        <time>2011-04-21T10:28:46Z</time>
      </trkpt>
      <trkpt lat="32.51853" lon="-5.07418">
        <ele>1741.403</ele>
        <time>2011-04-21T10:28:59Z</time>
      </trkpt>
      <trkpt lat="32.51832" lon="-5.07561">
        <ele>1740.656</ele>
        <time>2011-04-21T10:29:16Z</time>
      </trkpt>
      <trkpt lat="32.51764" lon="-5.07612">
        <ele>1736.391</ele>
        <time>2011-04-21T10:29:23Z</time>
      </trkpt>
      <trkpt lat="32.51766" lon="-5.07966">
        <ele>1727.159</ele>
        <time>2011-04-21T10:30:05Z</time>
      </trkpt>
      <trkpt lat="32.51694" lon="-5.08075">
        <ele>1731.205</ele>
        <time>2011-04-21T10:30:29Z</time>
      </trkpt>
      <trkpt lat="32.51569" lon="-5.08117">
        <ele>1734.851</ele>
        <time>2011-04-21T10:30:46Z</time>
      </trkpt>
      <trkpt lat="32.51563" lon="-5.08151">
        <ele>1733.691</ele>
        <time>2011-04-21T10:30:50Z</time>
      </trkpt>
      <trkpt lat="32.51727" lon="-5.08398">
        <ele>1708.488</ele>
        <time>2011-04-21T10:31:45Z</time>
      </trkpt>
      <trkpt lat="32.51655" lon="-5.08576">
        <ele>1716.218</ele>
        <time>2011-04-21T10:32:20Z</time>
      </trkpt>
      <trkpt lat="32.51602" lon="-5.08823">
        <ele>1718.271</ele>
        <time>2011-04-21T10:32:48Z</time>
      </trkpt>
      <trkpt lat="32.51697" lon="-5.09664">
        <ele>1735.833</ele>
        <time>2011-04-21T10:33:59Z</time>
      </trkpt>
      <trkpt lat="32.51658" lon="-5.09936">
        <ele>1742.865</ele>
        <time>2011-04-21T10:34:26Z</time>
      </trkpt>
      <trkpt lat="32.51691" lon="-5.10371">
        <ele>1773.946</ele>
        <time>2011-04-21T10:35:05Z</time>
      </trkpt>
      <trkpt lat="32.51889" lon="-5.11106">
        <ele>1792.022</ele>
        <time>2011-04-21T10:36:05Z</time>
      </trkpt>
      <trkpt lat="32.51905" lon="-5.11985">
        <ele>1819.522</ele>
        <time>2011-04-21T10:37:09Z</time>
      </trkpt>
      <trkpt lat="32.5185" lon="-5.12322">
        <ele>1833.122</ele>
        <time>2011-04-21T10:37:30Z</time>
      </trkpt>
      <trkpt lat="32.51428" lon="-5.134">
        <ele>1859.027</ele>
        <time>2011-04-21T10:39:11Z</time>
      </trkpt>
      <trkpt lat="32.51242" lon="-5.1431">
        <ele>1885.913</ele>
        <time>2011-04-21T10:40:24Z</time>
      </trkpt>
      <trkpt lat="32.51206" lon="-5.14993">
        <ele>1916.083</ele>
        <time>2011-04-21T10:41:36Z</time>
      </trkpt>
      <trkpt lat="32.51086" lon="-5.16334">
        <ele>1935.011</ele>
        <time>2011-04-21T10:43:24Z</time>
      </trkpt>
      <trkpt lat="32.5102" lon="-5.16767">
        <ele>1927.05</ele>
        <time>2011-04-21T10:43:56Z</time>
      </trkpt>
      <trkpt lat="32.50954" lon="-5.16989">
        <ele>1928.254</ele>
        <time>2011-04-21T10:44:12Z</time>
      </trkpt>
      <trkpt lat="32.50788" lon="-5.17132">
        <ele>1942.296</ele>
        <time>2011-04-21T10:44:30Z</time>
      </trkpt>
      <trkpt lat="32.50752" lon="-5.17357">
        <ele>1943.014</ele>
        <time>2011-04-21T10:44:47Z</time>
      </trkpt>
      <trkpt lat="32.50596" lon="-5.17555">
        <ele>1947.87</ele>
        <time>2011-04-21T10:45:13Z</time>
      </trkpt>
      <trkpt lat="32.50523" lon="-5.17663">
        <ele>1935.706</ele>
        <time>2011-04-21T10:45:26Z</time>
      </trkpt>
      <trkpt lat="32.50375" lon="-5.17748">
        <ele>1933.622</ele>
        <time>2011-04-21T10:45:51Z</time>
      </trkpt>
      <trkpt lat="32.50194" lon="-5.17759">
        <ele>1921.67</ele>
        <time>2011-04-21T10:46:16Z</time>
      </trkpt>
      <trkpt lat="32.49837" lon="-5.17547">
        <ele>1903.539</ele>
        <time>2011-04-21T10:47:05Z</time>
      </trkpt>
      <trkpt lat="32.4944" lon="-5.16739">
        <ele>1892.089</ele>
        <time>2011-04-21T11:02:04Z</time>
      </trkpt>
      <trkpt lat="32.4896" lon="-5.16216">
        <ele>1875.909</ele>
        <time>2011-04-21T11:02:51Z</time>
      </trkpt>
      <trkpt lat="32.48874" lon="-5.16063">
        <ele>1866.973</ele>
        <time>2011-04-21T11:03:00Z</time>
      </trkpt>
      <trkpt lat="32.48692" lon="-5.15303">
        <ele>1864.472</ele>
        <time>2011-04-21T11:03:50Z</time>
      </trkpt>
      <trkpt lat="32.4859" lon="-5.14992">
        <ele>1852.949</ele>
        <time>2011-04-21T11:04:11Z</time>
      </trkpt>
      <trkpt lat="32.48483" lon="-5.15006">
        <ele>1845.094</ele>
        <time>2011-04-21T11:04:26Z</time>
      </trkpt>
      <trkpt lat="32.48169" lon="-5.14811">
        <ele>1818.691</ele>
        <time>2011-04-21T11:04:55Z</time>
      </trkpt>
      <trkpt lat="32.48111" lon="-5.14833">
        <ele>1816.509</ele>
        <time>2011-04-21T11:05:03Z</time>
      </trkpt>
      <trkpt lat="32.48076" lon="-5.14927">
        <ele>1813.713</ele>
        <time>2011-04-21T11:05:11Z</time>
      </trkpt>
      <trkpt lat="32.48054" lon="-5.1497">
        <ele>1808.014</ele>
        <time>2011-04-21T11:05:15Z</time>
      </trkpt>
      <trkpt lat="32.47986" lon="-5.15">
        <ele>1800.83</ele>
        <time>2011-04-21T11:05:22Z</time>
      </trkpt>
      <trkpt lat="32.47795" lon="-5.14906">
        <ele>1793.525</ele>
        <time>2011-04-21T11:05:46Z</time>
      </trkpt>
      <trkpt lat="32.47466" lon="-5.14987">
        <ele>1798.057</ele>
        <time>2011-04-21T11:06:20Z</time>
      </trkpt>
      <trkpt lat="32.47239" lon="-5.14919">
        <ele>1801.813</ele>
        <time>2011-04-21T11:06:43Z</time>
      </trkpt>
      <trkpt lat="32.47128" lon="-5.14875">
        <ele>1802.625</ele>
        <time>2011-04-21T11:06:54Z</time>
      </trkpt>
      <trkpt lat="32.46854" lon="-5.14967">
        <ele>1806.967</ele>
        <time>2011-04-21T11:07:22Z</time>
      </trkpt>
      <trkpt lat="32.46618" lon="-5.14928">
        <ele>1809.313</ele>
        <time>2011-04-21T11:07:50Z</time>
      </trkpt>
      <trkpt lat="32.46334" lon="-5.15165">
        <ele>1814.333</ele>
        <time>2011-04-21T11:08:23Z</time>
      </trkpt>
      <trkpt lat="32.4605" lon="-5.15068">
        <ele>1818.353</ele>
        <time>2011-04-21T11:08:52Z</time>
      </trkpt>
      <trkpt lat="32.45852" lon="-5.15237">
        <ele>1820.924</ele>
        <time>2011-04-21T11:09:15Z</time>
      </trkpt>
      <trkpt lat="32.4568" lon="-5.15145">
        <ele>1821.881</ele>
        <time>2011-04-21T11:09:34Z</time>
      </trkpt>
      <trkpt lat="32.45548" lon="-5.15239">
        <ele>1828.743</ele>
        <time>2011-04-21T11:09:51Z</time>
      </trkpt>
      <trkpt lat="32.45389" lon="-5.15112">
        <ele>1829.952</ele>
        <time>2011-04-21T11:10:14Z</time>
      </trkpt>
      <trkpt lat="32.45327" lon="-5.15173">
        <ele>1832.918</ele>
        <time>2011-04-21T11:10:24Z</time>
      </trkpt>
      <trkpt lat="32.45346" lon="-5.15242">
        <ele>1836.308</ele>
        <time>2011-04-21T11:10:30Z</time>
      </trkpt>
      <trkpt lat="32.45385" lon="-5.15371">
        <ele>1837.115</ele>
        <time>2011-04-21T11:10:41Z</time>
      </trkpt>
      <trkpt lat="32.45266" lon="-5.15496">
        <ele>1836.906</ele>
        <time>2011-04-21T11:11:01Z</time>
      </trkpt>
      <trkpt lat="32.45209" lon="-5.15471">
        <ele>1839.194</ele>
        <time>2011-04-21T11:11:08Z</time>
      </trkpt>
      <trkpt lat="32.45094" lon="-5.15285">
        <ele>1838.07</ele>
        <time>2011-04-21T11:11:32Z</time>
      </trkpt>
      <trkpt lat="32.44828" lon="-5.15264">
        <ele>1844.402</ele>
        <time>2011-04-21T11:11:59Z</time>
      </trkpt>
      <trkpt lat="32.44616" lon="-5.15153">
        <ele>1847.166</ele>
        <time>2011-04-21T11:12:24Z</time>
      </trkpt>
      <trkpt lat="32.44482" lon="-5.15396">
        <ele>1853.775</ele>
        <time>2011-04-21T11:12:45Z</time>
      </trkpt>
      <trkpt lat="32.44432" lon="-5.15588">
        <ele>1855.689</ele>
        <time>2011-04-21T11:13:04Z</time>
      </trkpt>
      <trkpt lat="32.44085" lon="-5.15564">
        <ele>1859.352</ele>
        <time>2011-04-21T11:13:39Z</time>
      </trkpt>
      <trkpt lat="32.44089" lon="-5.15394">
        <ele>1861.083</ele>
        <time>2011-04-21T11:13:56Z</time>
      </trkpt>
      <trkpt lat="32.43978" lon="-5.1534">
        <ele>1867.593</ele>
        <time>2011-04-21T11:14:09Z</time>
      </trkpt>
      <trkpt lat="32.4382" lon="-5.15493">
        <ele>1868.396</ele>
        <time>2011-04-21T11:14:26Z</time>
      </trkpt>
      <trkpt lat="32.43662" lon="-5.1556">
        <ele>1876.115</ele>
        <time>2011-04-21T11:14:46Z</time>
      </trkpt>
      <trkpt lat="32.43596" lon="-5.15818">
        <ele>1883.199</ele>
        <time>2011-04-21T11:15:12Z</time>
      </trkpt>
      <trkpt lat="32.4349" lon="-5.15864">
        <ele>1891.192</ele>
        <time>2011-04-21T11:15:26Z</time>
      </trkpt>
      <trkpt lat="32.43331" lon="-5.15671">
        <ele>1880.584</ele>
        <time>2011-04-21T11:16:54Z</time>
      </trkpt>
      <trkpt lat="32.43215" lon="-5.15804">
        <ele>1885.674</ele>
        <time>2011-04-21T11:17:10Z</time>
      </trkpt>
      <trkpt lat="32.43127" lon="-5.15801">
        <ele>1890.07</ele>
        <time>2011-04-21T11:17:19Z</time>
      </trkpt>
      <trkpt lat="32.42962" lon="-5.15701">
        <ele>1888.588</ele>
        <time>2011-04-21T11:17:42Z</time>
      </trkpt>
      <trkpt lat="32.42697" lon="-5.15679">
        <ele>1894.706</ele>
        <time>2011-04-21T11:18:14Z</time>
      </trkpt>
      <trkpt lat="32.4255" lon="-5.15751">
        <ele>1907.567</ele>
        <time>2011-04-21T11:18:32Z</time>
      </trkpt>
      <trkpt lat="32.42484" lon="-5.15664">
        <ele>1899.179</ele>
        <time>2011-04-21T11:18:44Z</time>
      </trkpt>
      <trkpt lat="32.42528" lon="-5.1534">
        <ele>1901.543</ele>
        <time>2011-04-21T11:19:16Z</time>
      </trkpt>
      <trkpt lat="32.42387" lon="-5.15267">
        <ele>1907.42</ele>
        <time>2011-04-21T11:19:30Z</time>
      </trkpt>
      <trkpt lat="32.42124" lon="-5.1526">
        <ele>1910.086</ele>
        <time>2011-04-21T11:19:58Z</time>
      </trkpt>
      <trkpt lat="32.42177" lon="-5.14889">
        <ele>1914.068</ele>
        <time>2011-04-21T11:20:37Z</time>
      </trkpt>
      <trkpt lat="32.42059" lon="-5.14879">
        <ele>1920.43</ele>
        <time>2011-04-21T11:20:48Z</time>
      </trkpt>
      <trkpt lat="32.41922" lon="-5.14856">
        <ele>1920.596</ele>
        <time>2011-04-21T11:21:04Z</time>
      </trkpt>
      <trkpt lat="32.41896" lon="-5.1465">
        <ele>1924.946</ele>
        <time>2011-04-21T11:21:21Z</time>
      </trkpt>
      <trkpt lat="32.41842" lon="-5.14576">
        <ele>1922.504</ele>
        <time>2011-04-21T11:21:29Z</time>
      </trkpt>
      <trkpt lat="32.41761" lon="-5.14608">
        <ele>1922.633</ele>
        <time>2011-04-21T11:21:39Z</time>
      </trkpt>
      <trkpt lat="32.4159" lon="-5.14809">
        <ele>1934.663</ele>
        <time>2011-04-21T11:21:58Z</time>
      </trkpt>
      <trkpt lat="32.41403" lon="-5.14857">
        <ele>1936.035</ele>
        <time>2011-04-21T11:22:16Z</time>
      </trkpt>
      <trkpt lat="32.41336" lon="-5.15067">
        <ele>1938.162</ele>
        <time>2011-04-21T11:22:44Z</time>
      </trkpt>
      <trkpt lat="32.41159" lon="-5.15106">
        <ele>1941.198</ele>
        <time>2011-04-21T11:23:04Z</time>
      </trkpt>
      <trkpt lat="32.4099" lon="-5.15266">
        <ele>1946.102</ele>
        <time>2011-04-21T11:23:23Z</time>
      </trkpt>
      <trkpt lat="32.40676" lon="-5.15703">
        <ele>1963.833</ele>
        <time>2011-04-21T11:24:10Z</time>
      </trkpt>
      <trkpt lat="32.40324" lon="-5.16188">
        <ele>1969.022</ele>
        <time>2011-04-21T11:24:57Z</time>
      </trkpt>
      <trkpt lat="32.4015" lon="-5.16196">
        <ele>1964.779</ele>
        <time>2011-04-21T11:25:14Z</time>
      </trkpt>
      <trkpt lat="32.39942" lon="-5.16087">
        <ele>1969.741</ele>
        <time>2011-04-21T11:25:38Z</time>
      </trkpt>
      <trkpt lat="32.39858" lon="-5.16081">
        <ele>1966.935</ele>
        <time>2011-04-21T11:25:47Z</time>
      </trkpt>
      <trkpt lat="32.39773" lon="-5.16265">
        <ele>1974.586</ele>
        <time>2011-04-21T11:26:07Z</time>
      </trkpt>
      <trkpt lat="32.3962" lon="-5.16313">
        <ele>1979.118</ele>
        <time>2011-04-21T11:26:22Z</time>
      </trkpt>
      <trkpt lat="32.39561" lon="-5.16475">
        <ele>1989.8</ele>
        <time>2011-04-21T11:26:42Z</time>
      </trkpt>
      <trkpt lat="32.39467" lon="-5.16508">
        <ele>1998.98</ele>
        <time>2011-04-21T11:26:54Z</time>
      </trkpt>
      <trkpt lat="32.39369" lon="-5.16598">
        <ele>1995.563</ele>
        <time>2011-04-21T11:27:13Z</time>
      </trkpt>
      <trkpt lat="32.39272" lon="-5.16483">
        <ele>1998.982</ele>
        <time>2011-04-21T11:27:31Z</time>
      </trkpt>
      <trkpt lat="32.39203" lon="-5.16536">
        <ele>1997.576</ele>
        <time>2011-04-21T11:27:42Z</time>
      </trkpt>
      <trkpt lat="32.39027" lon="-5.16811">
        <ele>1994.616</ele>
        <time>2011-04-21T11:28:15Z</time>
      </trkpt>
      <trkpt lat="32.38945" lon="-5.17072">
        <ele>1996.532</ele>
        <time>2011-04-21T11:28:34Z</time>
      </trkpt>
      <trkpt lat="32.3869" lon="-5.17444">
        <ele>2006.61</ele>
        <time>2011-04-21T11:29:06Z</time>
      </trkpt>
      <trkpt lat="32.38568" lon="-5.17593">
        <ele>2011.353</ele>
        <time>2011-04-21T11:29:26Z</time>
      </trkpt>
      <trkpt lat="32.38304" lon="-5.17746">
        <ele>2015.506</ele>
        <time>2011-04-21T11:30:08Z</time>
      </trkpt>
      <trkpt lat="32.38317" lon="-5.17748">
        <ele>2011.926</ele>
        <time>2011-04-21T11:30:19Z</time>
      </trkpt>
      <trkpt lat="32.38398" lon="-5.17665">
        <ele>2006.489</ele>
        <time>2011-04-21T11:30:34Z</time>
      </trkpt>
      <trkpt lat="32.3834" lon="-5.17431">
        <ele>2011.525</ele>
        <time>2011-04-21T11:31:06Z</time>
      </trkpt>
      <trkpt lat="32.38336" lon="-5.17422">
        <ele>2009.929</ele>
        <time>2011-04-21T11:31:07Z</time>
      </trkpt>
      <trkpt lat="32.38057" lon="-5.17425">
        <ele>2021.158</ele>
        <time>2011-04-21T11:31:36Z</time>
      </trkpt>
      <trkpt lat="32.37767" lon="-5.17435">
        <ele>2019.538</ele>
        <time>2011-04-21T11:32:02Z</time>
      </trkpt>
      <trkpt lat="32.37274" lon="-5.17544">
        <ele>2034.479</ele>
        <time>2011-04-21T11:32:59Z</time>
      </trkpt>
      <trkpt lat="32.37242" lon="-5.17833">
        <ele>2048.593</ele>
        <time>2011-04-21T11:33:17Z</time>
      </trkpt>
      <trkpt lat="32.36957" lon="-5.18079">
        <ele>2048.648</ele>
        <time>2011-04-21T11:33:50Z</time>
      </trkpt>
      <trkpt lat="32.36824" lon="-5.18077">
        <ele>2051.828</ele>
        <time>2011-04-21T11:34:07Z</time>
      </trkpt>
      <trkpt lat="32.36727" lon="-5.17889">
        <ele>2072.075</ele>
        <time>2011-04-21T11:34:31Z</time>
      </trkpt>
      <trkpt lat="32.36611" lon="-5.17885">
        <ele>2070.364</ele>
        <time>2011-04-21T11:34:42Z</time>
      </trkpt>
      <trkpt lat="32.36583" lon="-5.17788">
        <ele>2075.283</ele>
        <time>2011-04-21T11:34:50Z</time>
      </trkpt>
      <trkpt lat="32.36616" lon="-5.17717">
        <ele>2075.259</ele>
        <time>2011-04-21T11:34:57Z</time>
      </trkpt>
      <trkpt lat="32.36567" lon="-5.17666">
        <ele>2071.573</ele>
        <time>2011-04-21T11:35:05Z</time>
      </trkpt>
      <trkpt lat="32.36344" lon="-5.17766">
        <ele>2075.142</ele>
        <time>2011-04-21T11:35:27Z</time>
      </trkpt>
      <trkpt lat="32.36299" lon="-5.17864">
        <ele>2077.031</ele>
        <time>2011-04-21T11:35:37Z</time>
      </trkpt>
      <trkpt lat="32.36116" lon="-5.1796">
        <ele>2085.94</ele>
        <time>2011-04-21T11:36:02Z</time>
      </trkpt>
      <trkpt lat="32.36054" lon="-5.1801">
        <ele>2087.101</ele>
        <time>2011-04-21T11:36:07Z</time>
      </trkpt>
      <trkpt lat="32.35941" lon="-5.18265">
        <ele>2087.376</ele>
        <time>2011-04-21T11:36:29Z</time>
      </trkpt>
      <trkpt lat="32.35946" lon="-5.18409">
        <ele>2088.976</ele>
        <time>2011-04-21T11:36:46Z</time>
      </trkpt>
      <trkpt lat="32.35844" lon="-5.18488">
        <ele>2102.581</ele>
        <time>2011-04-21T12:39:43Z</time>
      </trkpt>
      <trkpt lat="32.35847" lon="-5.18571">
        <ele>2105.617</ele>
        <time>2011-04-21T12:39:48Z</time>
      </trkpt>
      <trkpt lat="32.35858" lon="-5.18875">
        <ele>2106.73</ele>
        <time>2011-04-21T12:40:12Z</time>
      </trkpt>
      <trkpt lat="32.35931" lon="-5.19094">
        <ele>2114.295</ele>
        <time>2011-04-21T12:40:34Z</time>
      </trkpt>
      <trkpt lat="32.35944" lon="-5.19151">
        <ele>2115.008</ele>
        <time>2011-04-21T12:40:40Z</time>
      </trkpt>
      <trkpt lat="32.35837" lon="-5.19187">
        <ele>2113.842</ele>
        <time>2011-04-21T12:40:55Z</time>
      </trkpt>
      <trkpt lat="32.35794" lon="-5.1929">
        <ele>2116.677</ele>
        <time>2011-04-21T12:41:07Z</time>
      </trkpt>
      <trkpt lat="32.35706" lon="-5.19265">
        <ele>2119.813</ele>
        <time>2011-04-21T12:41:16Z</time>
      </trkpt>
      <trkpt lat="32.35677" lon="-5.19341">
        <ele>2122.813</ele>
        <time>2011-04-21T12:41:23Z</time>
      </trkpt>
      <trkpt lat="32.35781" lon="-5.19976">
        <ele>2134.635</ele>
        <time>2011-04-21T12:42:05Z</time>
      </trkpt>
      <trkpt lat="32.35665" lon="-5.20312">
        <ele>2143.217</ele>
        <time>2011-04-21T12:42:32Z</time>
      </trkpt>
      <trkpt lat="32.35708" lon="-5.21286">
        <ele>2186.992</ele>
        <time>2011-04-21T12:43:41Z</time>
      </trkpt>
      <trkpt lat="32.35708" lon="-5.21371">
        <ele>2189.218</ele>
        <time>2011-04-21T12:43:48Z</time>
      </trkpt>
      <trkpt lat="32.35649" lon="-5.21801">
        <ele>2192.901</ele>
        <time>2011-04-21T12:44:33Z</time>
      </trkpt>
      <trkpt lat="32.35629" lon="-5.21952">
        <ele>2191.248</ele>
        <time>2011-04-21T12:44:44Z</time>
      </trkpt>
      <trkpt lat="32.35403" lon="-5.2234">
        <ele>2194.641</ele>
        <time>2011-04-21T12:46:15Z</time>
      </trkpt>
      <trkpt lat="32.35162" lon="-5.22445">
        <ele>2209.13</ele>
        <time>2011-04-21T12:46:45Z</time>
      </trkpt>
      <trkpt lat="32.3505" lon="-5.22531">
        <ele>2210.76</ele>
        <time>2011-04-21T12:46:56Z</time>
      </trkpt>
      <trkpt lat="32.34903" lon="-5.22535">
        <ele>2212.108</ele>
        <time>2011-04-21T12:47:12Z</time>
      </trkpt>
      <trkpt lat="32.34798" lon="-5.22913">
        <ele>2218.584</ele>
        <time>2011-04-21T12:47:48Z</time>
      </trkpt>
      <trkpt lat="32.34513" lon="-5.22915">
        <ele>2230.663</ele>
        <time>2011-04-21T12:48:22Z</time>
      </trkpt>
      <trkpt lat="32.34488" lon="-5.22945">
        <ele>2231.074</ele>
        <time>2011-04-21T12:48:26Z</time>
      </trkpt>
      <trkpt lat="32.34333" lon="-5.23413">
        <ele>2250.005</ele>
        <time>2011-04-21T12:49:04Z</time>
      </trkpt>
      <trkpt lat="32.34222" lon="-5.23506">
        <ele>2254.981</ele>
        <time>2011-04-21T12:49:17Z</time>
      </trkpt>
      <trkpt lat="32.34157" lon="-5.23684">
        <ele>2268.758</ele>
        <time>2011-04-21T12:49:31Z</time>
      </trkpt>
      <trkpt lat="32.34154" lon="-5.23726">
        <ele>2270.354</ele>
        <time>2011-04-21T12:49:34Z</time>
      </trkpt>
      <trkpt lat="32.33994" lon="-5.2421">
        <ele>2278.242</ele>
        <time>2011-04-21T12:50:09Z</time>
      </trkpt>
      <trkpt lat="32.33538" lon="-5.24626">
        <ele>2321.751</ele>
        <time>2011-04-21T12:51:32Z</time>
      </trkpt>
      <trkpt lat="32.33455" lon="-5.24846">
        <ele>2341.146</ele>
        <time>2011-04-21T12:52:40Z</time>
      </trkpt>
      <trkpt lat="32.33402" lon="-5.24899">
        <ele>2345.784</ele>
        <time>2011-04-21T12:52:47Z</time>
      </trkpt>
      <trkpt lat="32.33261" lon="-5.25422">
        <ele>2369.604</ele>
        <time>2011-04-21T12:53:28Z</time>
      </trkpt>
      <trkpt lat="32.33225" lon="-5.25488">
        <ele>2370.983</ele>
        <time>2011-04-21T12:53:34Z</time>
      </trkpt>
      <trkpt lat="32.32912" lon="-5.26161">
        <ele>2355.022</ele>
        <time>2011-04-21T12:54:25Z</time>
      </trkpt>
      <trkpt lat="32.32678" lon="-5.26445">
        <ele>2345.067</ele>
        <time>2011-04-21T12:54:52Z</time>
      </trkpt>
      <trkpt lat="32.32531" lon="-5.26535">
        <ele>2346.209</ele>
        <time>2011-04-21T12:55:10Z</time>
      </trkpt>
      <trkpt lat="32.32496" lon="-5.26581">
        <ele>2345.107</ele>
        <time>2011-04-21T12:55:18Z</time>
      </trkpt>
      <trkpt lat="32.32499" lon="-5.26802">
        <ele>2335.015</ele>
        <time>2011-04-21T12:55:44Z</time>
      </trkpt>
      <trkpt lat="32.32354" lon="-5.26915">
        <ele>2317.424</ele>
        <time>2011-04-21T12:56:10Z</time>
      </trkpt>
      <trkpt lat="32.3234" lon="-5.26934">
        <ele>2314.906</ele>
        <time>2011-04-21T12:56:12Z</time>
      </trkpt>
      <trkpt lat="32.32239" lon="-5.27202">
        <ele>2307.29</ele>
        <time>2011-04-21T12:56:34Z</time>
      </trkpt>
      <trkpt lat="32.32058" lon="-5.274">
        <ele>2292.98</ele>
        <time>2011-04-21T12:56:53Z</time>
      </trkpt>
      <trkpt lat="32.32027" lon="-5.2771">
        <ele>2280.012</ele>
        <time>2011-04-21T12:57:16Z</time>
      </trkpt>
      <trkpt lat="32.31944" lon="-5.27784">
        <ele>2271.858</ele>
        <time>2011-04-21T12:57:28Z</time>
      </trkpt>
      <trkpt lat="32.32017" lon="-5.27925">
        <ele>2266.693</ele>
        <time>2011-04-21T12:57:44Z</time>
      </trkpt>
      <trkpt lat="32.32022" lon="-5.28122">
        <ele>2265.773</ele>
        <time>2011-04-21T12:57:59Z</time>
      </trkpt>
      <trkpt lat="32.32088" lon="-5.28384">
        <ele>2252.389</ele>
        <time>2011-04-21T12:58:17Z</time>
      </trkpt>
      <trkpt lat="32.32072" lon="-5.28521">
        <ele>2248.825</ele>
        <time>2011-04-21T12:58:26Z</time>
      </trkpt>
      <trkpt lat="32.31916" lon="-5.28803">
        <ele>2241.062</ele>
        <time>2011-04-21T12:58:51Z</time>
      </trkpt>
      <trkpt lat="32.31903" lon="-5.29083">
        <ele>2236.292</ele>
        <time>2011-04-21T12:59:12Z</time>
      </trkpt>
      <trkpt lat="32.31986" lon="-5.29224">
        <ele>2228.607</ele>
        <time>2011-04-21T12:59:24Z</time>
      </trkpt>
      <trkpt lat="32.32012" lon="-5.29507">
        <ele>2227.369</ele>
        <time>2011-04-21T12:59:39Z</time>
      </trkpt>
      <trkpt lat="32.31906" lon="-5.29732">
        <ele>2241.839</ele>
        <time>2011-04-21T12:59:55Z</time>
      </trkpt>
      <trkpt lat="32.31933" lon="-5.29807">
        <ele>2256.787</ele>
        <time>2011-04-21T13:00:09Z</time>
      </trkpt>
      <trkpt lat="32.3191" lon="-5.29838">
        <ele>2259.392</ele>
        <time>2011-04-21T13:00:12Z</time>
      </trkpt>
      <trkpt lat="32.31659" lon="-5.30054">
        <ele>2284.525</ele>
        <time>2011-04-21T13:00:40Z</time>
      </trkpt>
      <trkpt lat="32.31538" lon="-5.2996">
        <ele>2271.786</ele>
        <time>2011-04-21T13:00:54Z</time>
      </trkpt>
      <trkpt lat="32.31458" lon="-5.3009">
        <ele>2283.407</ele>
        <time>2011-04-21T13:01:06Z</time>
      </trkpt>
      <trkpt lat="32.31295" lon="-5.30122">
        <ele>2278.384</ele>
        <time>2011-04-21T13:01:22Z</time>
      </trkpt>
      <trkpt lat="32.31174" lon="-5.30143">
        <ele>2265.673</ele>
        <time>2011-04-21T13:01:30Z</time>
      </trkpt>
      <trkpt lat="32.31077" lon="-5.30311">
        <ele>2263.034</ele>
        <time>2011-04-21T13:01:45Z</time>
      </trkpt>
      <trkpt lat="32.31083" lon="-5.30495">
        <ele>2254.832</ele>
        <time>2011-04-21T13:02:01Z</time>
      </trkpt>
      <trkpt lat="32.31015" lon="-5.30581">
        <ele>2246.673</ele>
        <time>2011-04-21T13:02:10Z</time>
      </trkpt>
      <trkpt lat="32.30972" lon="-5.30521">
        <ele>2230.259</ele>
        <time>2011-04-21T13:02:24Z</time>
      </trkpt>
      <trkpt lat="32.30915" lon="-5.30605">
        <ele>2217.183</ele>
        <time>2011-04-21T13:03:04Z</time>
      </trkpt>
      <trkpt lat="32.30719" lon="-5.30373">
        <ele>2194.849</ele>
        <time>2011-04-21T13:03:34Z</time>
      </trkpt>
      <trkpt lat="32.30246" lon="-5.30543">
        <ele>2182.586</ele>
        <time>2011-04-21T13:05:58Z</time>
      </trkpt>
      <trkpt lat="32.30126" lon="-5.30372">
        <ele>2192.077</ele>
        <time>2011-04-21T13:06:19Z</time>
      </trkpt>
      <trkpt lat="32.3007" lon="-5.30136">
        <ele>2198.886</ele>
        <time>2011-04-21T13:06:42Z</time>
      </trkpt>
      <trkpt lat="32.3" lon="-5.30178">
        <ele>2205.979</ele>
        <time>2011-04-21T13:07:26Z</time>
      </trkpt>
      <trkpt lat="32.29863" lon="-5.30005">
        <ele>2229.697</ele>
        <time>2011-04-21T13:07:50Z</time>
      </trkpt>
      <trkpt lat="32.29786" lon="-5.29803">
        <ele>2241.15</ele>
        <time>2011-04-21T13:08:12Z</time>
      </trkpt>
      <trkpt lat="32.29717" lon="-5.29783">
        <ele>2250.301</ele>
        <time>2011-04-21T13:08:21Z</time>
      </trkpt>
      <trkpt lat="32.29681" lon="-5.29702">
        <ele>2257.971</ele>
        <time>2011-04-21T13:08:28Z</time>
      </trkpt>
      <trkpt lat="32.29545" lon="-5.29549">
        <ele>2275.221</ele>
        <time>2011-04-21T13:08:46Z</time>
      </trkpt>
      <trkpt lat="32.29434" lon="-5.29348">
        <ele>2279.525</ele>
        <time>2011-04-21T13:09:07Z</time>
      </trkpt>
      <trkpt lat="32.29326" lon="-5.29515">
        <ele>2264.091</ele>
        <time>2011-04-21T13:09:29Z</time>
      </trkpt>
      <trkpt lat="32.29243" lon="-5.29456">
        <ele>2252.215</ele>
        <time>2011-04-21T13:09:42Z</time>
      </trkpt>
      <trkpt lat="32.28845" lon="-5.29568">
        <ele>2255.461</ele>
        <time>2011-04-21T13:10:19Z</time>
      </trkpt>
      <trkpt lat="32.28638" lon="-5.29434">
        <ele>2260.812</ele>
        <time>2011-04-21T13:10:49Z</time>
      </trkpt>
      <trkpt lat="32.2862" lon="-5.29688">
        <ele>2293.003</ele>
        <time>2011-04-21T13:11:15Z</time>
      </trkpt>
      <trkpt lat="32.28672" lon="-5.29731">
        <ele>2301.215</ele>
        <time>2011-04-21T13:11:25Z</time>
      </trkpt>
      <trkpt lat="32.28656" lon="-5.29871">
        <ele>2318.606</ele>
        <time>2011-04-21T13:11:40Z</time>
      </trkpt>
      <trkpt lat="32.28728" lon="-5.29936">
        <ele>2326.316</ele>
        <time>2011-04-21T13:11:50Z</time>
      </trkpt>
      <trkpt lat="32.28679" lon="-5.30095">
        <ele>2350.927</ele>
        <time>2011-04-21T13:12:01Z</time>
      </trkpt>
      <trkpt lat="32.28558" lon="-5.3029">
        <ele>2368.596</ele>
        <time>2011-04-21T13:12:21Z</time>
      </trkpt>
      <trkpt lat="32.28593" lon="-5.30401">
        <ele>2380.832</ele>
        <time>2011-04-21T13:12:36Z</time>
      </trkpt>
      <trkpt lat="32.28587" lon="-5.30465">
        <ele>2385.058</ele>
        <time>2011-04-21T13:12:41Z</time>
      </trkpt>
      <trkpt lat="32.28491" lon="-5.30574">
        <ele>2388.551</ele>
        <time>2011-04-21T13:12:55Z</time>
      </trkpt>
      <trkpt lat="32.28616" lon="-5.30661">
        <ele>2402.645</ele>
        <time>2011-04-21T13:13:08Z</time>
      </trkpt>
      <trkpt lat="32.28625" lon="-5.30728">
        <ele>2404.099</ele>
        <time>2011-04-21T13:13:13Z</time>
      </trkpt>
      <trkpt lat="32.28742" lon="-5.30737">
        <ele>2401.135</ele>
        <time>2011-04-21T13:13:28Z</time>
      </trkpt>
      <trkpt lat="32.28746" lon="-5.30796">
        <ele>2403.578</ele>
        <time>2011-04-21T13:13:32Z</time>
      </trkpt>
      <trkpt lat="32.28733" lon="-5.30916">
        <ele>2388.408</ele>
        <time>2011-04-21T13:13:41Z</time>
      </trkpt>
      <trkpt lat="32.28516" lon="-5.31051">
        <ele>2351.305</ele>
        <time>2011-04-21T13:14:07Z</time>
      </trkpt>
      <trkpt lat="32.28483" lon="-5.3114">
        <ele>2346.2</ele>
        <time>2011-04-21T13:14:14Z</time>
      </trkpt>
      <trkpt lat="32.28463" lon="-5.31243">
        <ele>2330.619</ele>
        <time>2011-04-21T13:14:21Z</time>
      </trkpt>
      <trkpt lat="32.28506" lon="-5.31349">
        <ele>2313.04</ele>
        <time>2011-04-21T13:14:29Z</time>
      </trkpt>
      <trkpt lat="32.28649" lon="-5.31442">
        <ele>2299.3</ele>
        <time>2011-04-21T13:14:41Z</time>
      </trkpt>
      <trkpt lat="32.2868" lon="-5.31482">
        <ele>2290.347</ele>
        <time>2011-04-21T13:14:45Z</time>
      </trkpt>
      <trkpt lat="32.28753" lon="-5.31825">
        <ele>2260.637</ele>
        <time>2011-04-21T13:15:09Z</time>
      </trkpt>
      <trkpt lat="32.28743" lon="-5.32101">
        <ele>2240.181</ele>
        <time>2011-04-21T13:15:26Z</time>
      </trkpt>
      <trkpt lat="32.28447" lon="-5.33026">
        <ele>2209.027</ele>
        <time>2011-04-21T13:16:26Z</time>
      </trkpt>
      <trkpt lat="32.28416" lon="-5.33159">
        <ele>2203.883</ele>
        <time>2011-04-21T13:16:37Z</time>
      </trkpt>
      <trkpt lat="32.28266" lon="-5.33469">
        <ele>2169.41</ele>
        <time>2011-04-21T13:17:04Z</time>
      </trkpt>
      <trkpt lat="32.28263" lon="-5.33819">
        <ele>2122.264</ele>
        <time>2011-04-21T13:17:32Z</time>
      </trkpt>
      <trkpt lat="32.28199" lon="-5.3402">
        <ele>2108.137</ele>
        <time>2011-04-21T13:17:47Z</time>
      </trkpt>
      <trkpt lat="32.28054" lon="-5.34295">
        <ele>2084.957</ele>
        <time>2011-04-21T13:18:14Z</time>
      </trkpt>
      <trkpt lat="32.27768" lon="-5.34476">
        <ele>2076.613</ele>
        <time>2011-04-21T13:18:56Z</time>
      </trkpt>
      <trkpt lat="32.27724" lon="-5.34513">
        <ele>2072.789</ele>
        <time>2011-04-21T13:19:01Z</time>
      </trkpt>
      <trkpt lat="32.27699" lon="-5.34765">
        <ele>2064.132</ele>
        <time>2011-04-21T13:19:19Z</time>
      </trkpt>
      <trkpt lat="32.27764" lon="-5.34928">
        <ele>2061.921</ele>
        <time>2011-04-21T13:19:32Z</time>
      </trkpt>
      <trkpt lat="32.27772" lon="-5.34951">
        <ele>2053.371</ele>
        <time>2011-04-21T13:19:35Z</time>
      </trkpt>
      <trkpt lat="32.27612" lon="-5.35095">
        <ele>2047.764</ele>
        <time>2011-04-21T13:19:56Z</time>
      </trkpt>
      <trkpt lat="32.27604" lon="-5.3549">
        <ele>2038.697</ele>
        <time>2011-04-21T13:20:19Z</time>
      </trkpt>
      <trkpt lat="32.278" lon="-5.36949">
        <ele>2011.072</ele>
        <time>2011-04-21T13:21:58Z</time>
      </trkpt>
      <trkpt lat="32.27861" lon="-5.36988">
        <ele>2005.449</ele>
        <time>2011-04-21T13:22:05Z</time>
      </trkpt>
      <trkpt lat="32.27888" lon="-5.37105">
        <ele>2009.465</ele>
        <time>2011-04-21T13:22:15Z</time>
      </trkpt>
      <trkpt lat="32.28001" lon="-5.37389">
        <ele>2000.111</ele>
        <time>2011-04-21T13:22:38Z</time>
      </trkpt>
      <trkpt lat="32.28002" lon="-5.37578">
        <ele>1997.942</ele>
        <time>2011-04-21T13:22:52Z</time>
      </trkpt>
      <trkpt lat="32.28202" lon="-5.37749">
        <ele>1994.719</ele>
        <time>2011-04-21T13:23:13Z</time>
      </trkpt>
      <trkpt lat="32.28421" lon="-5.38159">
        <ele>2009.036</ele>
        <time>2011-04-21T13:23:41Z</time>
      </trkpt>
      <trkpt lat="32.28433" lon="-5.38203">
        <ele>2009.641</ele>
        <time>2011-04-21T13:23:44Z</time>
      </trkpt>
      <trkpt lat="32.2838" lon="-5.38605">
        <ele>1973.889</ele>
        <time>2011-04-21T13:24:12Z</time>
      </trkpt>
      <trkpt lat="32.28436" lon="-5.3889">
        <ele>1962.118</ele>
        <time>2011-04-21T13:24:38Z</time>
      </trkpt>
      <trkpt lat="32.28608" lon="-5.38995">
        <ele>1961.573</ele>
        <time>2011-04-21T13:25:02Z</time>
      </trkpt>
      <trkpt lat="32.28681" lon="-5.39085">
        <ele>1953.119</ele>
        <time>2011-04-21T13:25:20Z</time>
      </trkpt>
      <trkpt lat="32.28661" lon="-5.39497">
        <ele>1958.459</ele>
        <time>2011-04-21T13:26:10Z</time>
      </trkpt>
      <trkpt lat="32.2854" lon="-5.39843">
        <ele>1963.331</ele>
        <time>2011-04-21T13:26:50Z</time>
      </trkpt>
      <trkpt lat="32.28384" lon="-5.40022">
        <ele>1968.621</ele>
        <time>2011-04-21T13:27:13Z</time>
      </trkpt>
      <trkpt lat="32.2829" lon="-5.40061">
        <ele>1969.183</ele>
        <time>2011-04-21T13:27:25Z</time>
      </trkpt>
      <trkpt lat="32.28189" lon="-5.40211">
        <ele>1977.704</ele>
        <time>2011-04-21T13:27:39Z</time>
      </trkpt>
      <trkpt lat="32.28042" lon="-5.40466">
        <ele>1981.2</ele>
        <time>2011-04-21T13:28:00Z</time>
      </trkpt>
      <trkpt lat="32.27783" lon="-5.40665">
        <ele>1989.092</ele>
        <time>2011-04-21T13:28:26Z</time>
      </trkpt>
      <trkpt lat="32.27608" lon="-5.40965">
        <ele>2001.79</ele>
        <time>2011-04-21T13:28:56Z</time>
      </trkpt>
      <trkpt lat="32.27554" lon="-5.4104">
        <ele>2002.638</ele>
        <time>2011-04-21T13:29:03Z</time>
      </trkpt>
      <trkpt lat="32.27352" lon="-5.41135">
        <ele>2001.634</ele>
        <time>2011-04-21T13:29:19Z</time>
      </trkpt>
      <trkpt lat="32.27238" lon="-5.41331">
        <ele>2008.125</ele>
        <time>2011-04-21T13:29:35Z</time>
      </trkpt>
      <trkpt lat="32.27007" lon="-5.41411">
        <ele>2026.189</ele>
        <time>2011-04-21T13:30:01Z</time>
      </trkpt>
      <trkpt lat="32.27015" lon="-5.4173">
        <ele>2027.922</ele>
        <time>2011-04-21T13:30:40Z</time>
      </trkpt>
      <trkpt lat="32.26882" lon="-5.41965">
        <ele>2042.895</ele>
        <time>2011-04-21T13:31:33Z</time>
      </trkpt>
      <trkpt lat="32.26844" lon="-5.42187">
        <ele>2061.695</ele>
        <time>2011-04-21T13:31:51Z</time>
      </trkpt>
      <trkpt lat="32.26621" lon="-5.42422">
        <ele>2094.275</ele>
        <time>2011-04-21T13:32:19Z</time>
      </trkpt>
      <trkpt lat="32.26582" lon="-5.42491">
        <ele>2097.594</ele>
        <time>2011-04-21T13:32:24Z</time>
      </trkpt>
      <trkpt lat="32.2654" lon="-5.42575">
        <ele>2097.053</ele>
        <time>2011-04-21T13:32:33Z</time>
      </trkpt>
      <trkpt lat="32.26072" lon="-5.42851">
        <ele>2100.508</ele>
        <time>2011-04-21T13:34:04Z</time>
      </trkpt>
      <trkpt lat="32.25906" lon="-5.43112">
        <ele>2128.296</ele>
        <time>2011-04-21T13:44:39Z</time>
      </trkpt>
      <trkpt lat="32.25902" lon="-5.43119">
        <ele>2128.153</ele>
        <time>2011-04-21T13:44:40Z</time>
      </trkpt>
      <trkpt lat="32.25547" lon="-5.43282">
        <ele>2129.522</ele>
        <time>2011-04-21T13:45:28Z</time>
      </trkpt>
      <trkpt lat="32.25212" lon="-5.43689">
        <ele>2154.07</ele>
        <time>2011-04-21T13:46:21Z</time>
      </trkpt>
      <trkpt lat="32.25055" lon="-5.4354">
        <ele>2156.021</ele>
        <time>2011-04-21T13:46:44Z</time>
      </trkpt>
      <trkpt lat="32.24843" lon="-5.43568">
        <ele>2167.759</ele>
        <time>2011-04-21T13:47:05Z</time>
      </trkpt>
      <trkpt lat="32.24646" lon="-5.43476">
        <ele>2182.401</ele>
        <time>2011-04-21T13:47:28Z</time>
      </trkpt>
      <trkpt lat="32.24469" lon="-5.43308">
        <ele>2203.264</ele>
        <time>2011-04-21T13:47:50Z</time>
      </trkpt>
      <trkpt lat="32.244" lon="-5.43163">
        <ele>2216.555</ele>
        <time>2011-04-21T13:48:08Z</time>
      </trkpt>
      <trkpt lat="32.2407" lon="-5.43268">
        <ele>2245.615</ele>
        <time>2011-04-21T13:48:51Z</time>
      </trkpt>
      <trkpt lat="32.23921" lon="-5.4318">
        <ele>2261.677</ele>
        <time>2011-04-21T13:49:13Z</time>
      </trkpt>
      <trkpt lat="32.23432" lon="-5.43404">
        <ele>2311.733</ele>
        <time>2011-04-21T13:50:19Z</time>
      </trkpt>
      <trkpt lat="32.23381" lon="-5.4338">
        <ele>2315.227</ele>
        <time>2011-04-21T13:50:27Z</time>
      </trkpt>
      <trkpt lat="32.23296" lon="-5.43406">
        <ele>2313.184</ele>
        <time>2011-04-21T13:50:41Z</time>
      </trkpt>
      <trkpt lat="32.23255" lon="-5.43254">
        <ele>2304.528</ele>
        <time>2011-04-21T13:50:57Z</time>
      </trkpt>
      <trkpt lat="32.23196" lon="-5.43315">
        <ele>2301.081</ele>
        <time>2011-04-21T13:51:15Z</time>
      </trkpt>
      <trkpt lat="32.22897" lon="-5.43209">
        <ele>2301.87</ele>
        <time>2011-04-21T13:52:03Z</time>
      </trkpt>
      <trkpt lat="32.22762" lon="-5.43308">
        <ele>2315.65</ele>
        <time>2011-04-21T13:52:28Z</time>
      </trkpt>
      <trkpt lat="32.22674" lon="-5.43437">
        <ele>2330.468</ele>
        <time>2011-04-21T13:52:45Z</time>
      </trkpt>
      <trkpt lat="32.22637" lon="-5.43532">
        <ele>2338.416</ele>
        <time>2011-04-21T13:53:00Z</time>
      </trkpt>
      <trkpt lat="32.22414" lon="-5.43452">
        <ele>2362.137</ele>
        <time>2011-04-21T13:53:32Z</time>
      </trkpt>
      <trkpt lat="32.22383" lon="-5.43451">
        <ele>2364.879</ele>
        <time>2011-04-21T13:53:38Z</time>
      </trkpt>
      <trkpt lat="32.2208" lon="-5.43629">
        <ele>2381.536</ele>
        <time>2011-04-21T13:54:31Z</time>
      </trkpt>
      <trkpt lat="32.21827" lon="-5.43923">
        <ele>2399.033</ele>
        <time>2011-04-21T13:55:06Z</time>
      </trkpt>
      <trkpt lat="32.21761" lon="-5.44273">
        <ele>2428.035</ele>
        <time>2011-04-21T13:55:35Z</time>
      </trkpt>
      <trkpt lat="32.21837" lon="-5.44499">
        <ele>2443.896</ele>
        <time>2011-04-21T13:56:02Z</time>
      </trkpt>
      <trkpt lat="32.21904" lon="-5.44575">
        <ele>2449.068</ele>
        <time>2011-04-21T13:56:12Z</time>
      </trkpt>
      <trkpt lat="32.21898" lon="-5.44775">
        <ele>2463.692</ele>
        <time>2011-04-21T13:56:30Z</time>
      </trkpt>
      <trkpt lat="32.21906" lon="-5.44807">
        <ele>2464.687</ele>
        <time>2011-04-21T13:56:33Z</time>
      </trkpt>
      <trkpt lat="32.21791" lon="-5.44983">
        <ele>2476.816</ele>
        <time>2011-04-21T13:56:59Z</time>
      </trkpt>
      <trkpt lat="32.21689" lon="-5.44976">
        <ele>2482.256</ele>
        <time>2011-04-21T13:57:11Z</time>
      </trkpt>
      <trkpt lat="32.21687" lon="-5.45048">
        <ele>2491.627</ele>
        <time>2011-04-21T13:57:17Z</time>
      </trkpt>
      <trkpt lat="32.21711" lon="-5.45282">
        <ele>2504.434</ele>
        <time>2011-04-21T13:57:34Z</time>
      </trkpt>
      <trkpt lat="32.21631" lon="-5.45401">
        <ele>2512.786</ele>
        <time>2011-04-21T13:57:50Z</time>
      </trkpt>
      <trkpt lat="32.21562" lon="-5.45412">
        <ele>2514.034</ele>
        <time>2011-04-21T13:58:02Z</time>
      </trkpt>
      <trkpt lat="32.21566" lon="-5.45594">
        <ele>2532.176</ele>
        <time>2011-04-21T13:58:24Z</time>
      </trkpt>
      <trkpt lat="32.21573" lon="-5.45726">
        <ele>2539.857</ele>
        <time>2011-04-21T13:58:36Z</time>
      </trkpt>
      <trkpt lat="32.21468" lon="-5.4586">
        <ele>2553.998</ele>
        <time>2011-04-21T13:58:52Z</time>
      </trkpt>
      <trkpt lat="32.21463" lon="-5.45958">
        <ele>2555.056</ele>
        <time>2011-04-21T13:59:00Z</time>
      </trkpt>
      <trkpt lat="32.21426" lon="-5.45964">
        <ele>2556.86</ele>
        <time>2011-04-21T13:59:07Z</time>
      </trkpt>
      <trkpt lat="32.21271" lon="-5.45716">
        <ele>2579.19</ele>
        <time>2011-04-21T13:59:29Z</time>
      </trkpt>
      <trkpt lat="32.21223" lon="-5.45673">
        <ele>2583.31</ele>
        <time>2011-04-21T13:59:34Z</time>
      </trkpt>
      <trkpt lat="32.21085" lon="-5.45711">
        <ele>2598.576</ele>
        <time>2011-04-21T13:59:47Z</time>
      </trkpt>
      <trkpt lat="32.21051" lon="-5.45707">
        <ele>2599.627</ele>
        <time>2011-04-21T13:59:53Z</time>
      </trkpt>
      <trkpt lat="32.20862" lon="-5.45372">
        <ele>2627.771</ele>
        <time>2011-04-21T14:02:37Z</time>
      </trkpt>
      <trkpt lat="32.20726" lon="-5.45623">
        <ele>2638.406</ele>
        <time>2011-04-21T14:03:19Z</time>
      </trkpt>
      <trkpt lat="32.20597" lon="-5.4575">
        <ele>2625.065</ele>
        <time>2011-04-21T14:03:41Z</time>
      </trkpt>
      <trkpt lat="32.2046" lon="-5.45794">
        <ele>2617.236</ele>
        <time>2011-04-21T14:03:57Z</time>
      </trkpt>
      <trkpt lat="32.20394" lon="-5.45815">
        <ele>2611.9</ele>
        <time>2011-04-21T14:04:04Z</time>
      </trkpt>
      <trkpt lat="32.2039" lon="-5.45901">
        <ele>2608.784</ele>
        <time>2011-04-21T14:04:12Z</time>
      </trkpt>
      <trkpt lat="32.20398" lon="-5.45984">
        <ele>2600.104</ele>
        <time>2011-04-21T14:04:23Z</time>
      </trkpt>
      <trkpt lat="32.20213" lon="-5.45988">
        <ele>2585.214</ele>
        <time>2011-04-21T14:04:41Z</time>
      </trkpt>
      <trkpt lat="32.2004" lon="-5.45893">
        <ele>2574.781</ele>
        <time>2011-04-21T14:05:00Z</time>
      </trkpt>
      <trkpt lat="32.19689" lon="-5.46161">
        <ele>2553.516</ele>
        <time>2011-04-21T14:05:25Z</time>
      </trkpt>
      <trkpt lat="32.19428" lon="-5.46462">
        <ele>2522.998</ele>
        <time>2011-04-21T14:05:53Z</time>
      </trkpt>
      <trkpt lat="32.19065" lon="-5.46508">
        <ele>2501.874</ele>
        <time>2011-04-21T14:06:21Z</time>
      </trkpt>
      <trkpt lat="32.1884" lon="-5.46613">
        <ele>2471.88</ele>
        <time>2011-04-21T14:06:49Z</time>
      </trkpt>
      <trkpt lat="32.18772" lon="-5.46564">
        <ele>2463.831</ele>
        <time>2011-04-21T14:11:11Z</time>
      </trkpt>
      <trkpt lat="32.18776" lon="-5.4679">
        <ele>2445.397</ele>
        <time>2011-04-21T14:11:28Z</time>
      </trkpt>
      <trkpt lat="32.18853" lon="-5.46862">
        <ele>2433.491</ele>
        <time>2011-04-21T14:11:42Z</time>
      </trkpt>
      <trkpt lat="32.18582" lon="-5.47078">
        <ele>2430.202</ele>
        <time>2011-04-21T14:12:14Z</time>
      </trkpt>
      <trkpt lat="32.1844" lon="-5.46953">
        <ele>2420.397</ele>
        <time>2011-04-21T14:12:38Z</time>
      </trkpt>
      <trkpt lat="32.18362" lon="-5.46998">
        <ele>2413.819</ele>
        <time>2011-04-21T14:12:56Z</time>
      </trkpt>
      <trkpt lat="32.18111" lon="-5.46921">
        <ele>2410.24</ele>
        <time>2011-04-21T14:13:21Z</time>
      </trkpt>
      <trkpt lat="32.17935" lon="-5.46948">
        <ele>2392.013</ele>
        <time>2011-04-21T14:14:21Z</time>
      </trkpt>
      <trkpt lat="32.17995" lon="-5.47079">
        <ele>2381.782</ele>
        <time>2011-04-21T14:14:51Z</time>
      </trkpt>
      <trkpt lat="32.17833" lon="-5.47097">
        <ele>2376.28</ele>
        <time>2011-04-21T14:15:11Z</time>
      </trkpt>
      <trkpt lat="32.17706" lon="-5.473">
        <ele>2369.691</ele>
        <time>2011-04-21T14:15:35Z</time>
      </trkpt>
      <trkpt lat="32.1769" lon="-5.4743">
        <ele>2369.464</ele>
        <time>2011-04-21T14:15:48Z</time>
      </trkpt>
      <trkpt lat="32.17757" lon="-5.4758">
        <ele>2371.365</ele>
        <time>2011-04-21T14:16:03Z</time>
      </trkpt>
      <trkpt lat="32.17767" lon="-5.47665">
        <ele>2368.853</ele>
        <time>2011-04-21T14:16:10Z</time>
      </trkpt>
      <trkpt lat="32.17629" lon="-5.47912">
        <ele>2362.514</ele>
        <time>2011-04-21T14:16:38Z</time>
      </trkpt>
      <trkpt lat="32.17631" lon="-5.48112">
        <ele>2358.002</ele>
        <time>2011-04-21T14:16:58Z</time>
      </trkpt>
      <trkpt lat="32.17487" lon="-5.48587">
        <ele>2352.426</ele>
        <time>2011-04-21T14:17:31Z</time>
      </trkpt>
      <trkpt lat="32.17465" lon="-5.48702">
        <ele>2347.408</ele>
        <time>2011-04-21T14:17:38Z</time>
      </trkpt>
      <trkpt lat="32.17443" lon="-5.49225">
        <ele>2341.573</ele>
        <time>2011-04-21T14:18:07Z</time>
      </trkpt>
      <trkpt lat="32.17502" lon="-5.49352">
        <ele>2343.956</ele>
        <time>2011-04-21T14:18:15Z</time>
      </trkpt>
      <trkpt lat="32.17494" lon="-5.49446">
        <ele>2340.77</ele>
        <time>2011-04-21T14:18:21Z</time>
      </trkpt>
      <trkpt lat="32.17426" lon="-5.49493">
        <ele>2338.161</ele>
        <time>2011-04-21T14:18:24Z</time>
      </trkpt>
      <trkpt lat="32.17326" lon="-5.49782">
        <ele>2333.825</ele>
        <time>2011-04-21T14:18:41Z</time>
      </trkpt>
      <trkpt lat="32.17278" lon="-5.49863">
        <ele>2330.546</ele>
        <time>2011-04-21T14:18:47Z</time>
      </trkpt>
      <trkpt lat="32.17279" lon="-5.50159">
        <ele>2331.278</ele>
        <time>2011-04-21T14:19:04Z</time>
      </trkpt>
      <trkpt lat="32.17276" lon="-5.50324">
        <ele>2328.931</ele>
        <time>2011-04-21T14:19:13Z</time>
      </trkpt>
      <trkpt lat="32.1716" lon="-5.50561">
        <ele>2321.298</ele>
        <time>2011-04-21T14:19:36Z</time>
      </trkpt>
      <trkpt lat="32.17076" lon="-5.51157">
        <ele>2317.077</ele>
        <time>2011-04-21T14:20:12Z</time>
      </trkpt>
      <trkpt lat="32.17071" lon="-5.512">
        <ele>2314.79</ele>
        <time>2011-04-21T14:20:15Z</time>
      </trkpt>
      <trkpt lat="32.16825" lon="-5.51388">
        <ele>2310.117</ele>
        <time>2011-04-21T14:20:48Z</time>
      </trkpt>
      <trkpt lat="32.16715" lon="-5.51859">
        <ele>2304.021</ele>
        <time>2011-04-21T14:21:17Z</time>
      </trkpt>
      <trkpt lat="32.16661" lon="-5.5198">
        <ele>2299.678</ele>
        <time>2011-04-21T14:21:25Z</time>
      </trkpt>
      <trkpt lat="32.16507" lon="-5.52119">
        <ele>2292.759</ele>
        <time>2011-04-21T14:21:44Z</time>
      </trkpt>
      <trkpt lat="32.16256" lon="-5.52845">
        <ele>2294.532</ele>
        <time>2011-04-21T14:22:28Z</time>
      </trkpt>
      <trkpt lat="32.16226" lon="-5.53134">
        <ele>2284.619</ele>
        <time>2011-04-21T14:22:49Z</time>
      </trkpt>
      <trkpt lat="32.16096" lon="-5.53391">
        <ele>2276.784</ele>
        <time>2011-04-21T14:23:08Z</time>
      </trkpt>
      <trkpt lat="32.15995" lon="-5.5384">
        <ele>2271.104</ele>
        <time>2011-04-21T14:23:33Z</time>
      </trkpt>
      <trkpt lat="32.16157" lon="-5.54649">
        <ele>2262.59</ele>
        <time>2011-04-21T14:24:16Z</time>
      </trkpt>
      <trkpt lat="32.16108" lon="-5.54822">
        <ele>2266.691</ele>
        <time>2011-04-21T14:24:26Z</time>
      </trkpt>
      <trkpt lat="32.16004" lon="-5.55029">
        <ele>2253.365</ele>
        <time>2011-04-21T14:24:40Z</time>
      </trkpt>
      <trkpt lat="32.16001" lon="-5.55557">
        <ele>2255.248</ele>
        <time>2011-04-21T14:25:17Z</time>
      </trkpt>
      <trkpt lat="32.15927" lon="-5.55783">
        <ele>2247.298</ele>
        <time>2011-04-21T14:25:34Z</time>
      </trkpt>
      <trkpt lat="32.15957" lon="-5.5593">
        <ele>2240.247</ele>
        <time>2011-04-21T14:25:44Z</time>
      </trkpt>
      <trkpt lat="32.15798" lon="-5.56143">
        <ele>2239.23</ele>
        <time>2011-04-21T14:26:02Z</time>
      </trkpt>
      <trkpt lat="32.15685" lon="-5.56204">
        <ele>2235.526</ele>
        <time>2011-04-21T14:26:15Z</time>
      </trkpt>
      <trkpt lat="32.15576" lon="-5.56672">
        <ele>2226.286</ele>
        <time>2011-04-21T14:26:52Z</time>
      </trkpt>
      <trkpt lat="32.15424" lon="-5.56701">
        <ele>2223.476</ele>
        <time>2011-04-21T14:27:11Z</time>
      </trkpt>
      <trkpt lat="32.15539" lon="-5.57062">
        <ele>2222.479</ele>
        <time>2011-04-21T14:27:39Z</time>
      </trkpt>
      <trkpt lat="32.1544" lon="-5.57282">
        <ele>2221.49</ele>
        <time>2011-04-21T14:27:59Z</time>
      </trkpt>
      <trkpt lat="32.15264" lon="-5.57368">
        <ele>2219.02</ele>
        <time>2011-04-21T14:28:14Z</time>
      </trkpt>
      <trkpt lat="32.15243" lon="-5.57512">
        <ele>2214.319</ele>
        <time>2011-04-21T14:28:27Z</time>
      </trkpt>
      <trkpt lat="32.15298" lon="-5.57622">
        <ele>2213.281</ele>
        <time>2011-04-21T14:28:40Z</time>
      </trkpt>
      <trkpt lat="32.15246" lon="-5.57717">
        <ele>2218.318</ele>
        <time>2011-04-21T14:28:52Z</time>
      </trkpt>
      <trkpt lat="32.14915" lon="-5.58512">
        <ele>2211.362</ele>
        <time>2011-04-21T14:29:47Z</time>
      </trkpt>
      <trkpt lat="32.15046" lon="-5.58826">
        <ele>2230.636</ele>
        <time>2011-04-21T14:30:06Z</time>
      </trkpt>
      <trkpt lat="32.15311" lon="-5.59027">
        <ele>2204.216</ele>
        <time>2011-04-21T14:30:27Z</time>
      </trkpt>
      <trkpt lat="32.15441" lon="-5.59479">
        <ele>2197.847</ele>
        <time>2011-04-21T14:30:52Z</time>
      </trkpt>
      <trkpt lat="32.15551" lon="-5.59571">
        <ele>2194.012</ele>
        <time>2011-04-21T14:31:09Z</time>
      </trkpt>
      <trkpt lat="32.15543" lon="-5.59631">
        <ele>2199.053</ele>
        <time>2011-04-21T14:31:14Z</time>
      </trkpt>
      <trkpt lat="32.15505" lon="-5.59816">
        <ele>2192.661</ele>
        <time>2011-04-21T14:31:27Z</time>
      </trkpt>
      <trkpt lat="32.15914" lon="-5.59966">
        <ele>2192.857</ele>
        <time>2011-04-21T14:32:02Z</time>
      </trkpt>
      <trkpt lat="32.15907" lon="-5.60286">
        <ele>2187.09</ele>
        <time>2011-04-21T14:32:34Z</time>
      </trkpt>
      <trkpt lat="32.15998" lon="-5.6029">
        <ele>2190.888</ele>
        <time>2011-04-21T14:32:43Z</time>
      </trkpt>
      <trkpt lat="32.16042" lon="-5.60206">
        <ele>2190.89</ele>
        <time>2011-04-21T14:32:48Z</time>
      </trkpt>
      <trkpt lat="32.16344" lon="-5.59681">
        <ele>2185.189</ele>
        <time>2011-04-21T14:33:21Z</time>
      </trkpt>
      <trkpt lat="32.16575" lon="-5.59691">
        <ele>2189.203</ele>
        <time>2011-04-21T14:33:38Z</time>
      </trkpt>
      <trkpt lat="32.16658" lon="-5.59743">
        <ele>2187.708</ele>
        <time>2011-04-21T14:33:46Z</time>
      </trkpt>
      <trkpt lat="32.16713" lon="-5.5997">
        <ele>2184.685</ele>
        <time>2011-04-21T14:33:58Z</time>
      </trkpt>
      <trkpt lat="32.16641" lon="-5.60295">
        <ele>2182.727</ele>
        <time>2011-04-21T14:34:18Z</time>
      </trkpt>
      <trkpt lat="32.16671" lon="-5.60492">
        <ele>2193.916</ele>
        <time>2011-04-21T14:34:30Z</time>
      </trkpt>
      <trkpt lat="32.16693" lon="-5.60632">
        <ele>2188.465</ele>
        <time>2011-04-21T14:34:38Z</time>
      </trkpt>
      <trkpt lat="32.16627" lon="-5.60912">
        <ele>2187.722</ele>
        <time>2011-04-21T14:35:03Z</time>
      </trkpt>
      <trkpt lat="32.16513" lon="-5.61">
        <ele>2193.265</ele>
        <time>2011-04-21T14:35:13Z</time>
      </trkpt>
      <trkpt lat="32.16456" lon="-5.61129">
        <ele>2201.559</ele>
        <time>2011-04-21T14:35:21Z</time>
      </trkpt>
      <trkpt lat="32.16213" lon="-5.61687">
        <ele>2175.332</ele>
        <time>2011-04-21T14:35:55Z</time>
      </trkpt>
      <trkpt lat="32.16" lon="-5.61846">
        <ele>2171.052</ele>
        <time>2011-04-21T14:36:12Z</time>
      </trkpt>
      <trkpt lat="32.15781" lon="-5.61849">
        <ele>2168.734</ele>
        <time>2011-04-21T14:36:31Z</time>
      </trkpt>
      <trkpt lat="32.15487" lon="-5.62853">
        <ele>2168.862</ele>
        <time>2011-04-21T14:37:41Z</time>
      </trkpt>
      <trkpt lat="32.1551" lon="-5.63035">
        <ele>2169.402</ele>
        <time>2011-04-21T14:37:58Z</time>
      </trkpt>
      <trkpt lat="32.15526" lon="-5.63089">
        <ele>2168.827</ele>
        <time>2011-04-21T14:38:06Z</time>
      </trkpt>
      <trkpt lat="32.15713" lon="-5.6312">
        <ele>2178.637</ele>
        <time>2011-04-21T14:38:36Z</time>
      </trkpt>
      <trkpt lat="32.16213" lon="-5.62987">
        <ele>2188.453</ele>
        <time>2011-04-21T14:39:28Z</time>
      </trkpt>
      <trkpt lat="32.1647" lon="-5.62997">
        <ele>2189.415</ele>
        <time>2011-04-21T14:39:45Z</time>
      </trkpt>
      <trkpt lat="32.17053" lon="-5.63119">
        <ele>2202.088</ele>
        <time>2011-04-21T14:40:20Z</time>
      </trkpt>
      <trkpt lat="32.17489" lon="-5.63371">
        <ele>2210.072</ele>
        <time>2011-04-21T14:40:58Z</time>
      </trkpt>
      <trkpt lat="32.17723" lon="-5.63136">
        <ele>2224.818</ele>
        <time>2011-04-21T14:41:18Z</time>
      </trkpt>
      <trkpt lat="32.17892" lon="-5.63071">
        <ele>2232.947</ele>
        <time>2011-04-21T14:41:29Z</time>
      </trkpt>
      <trkpt lat="32.18226" lon="-5.63227">
        <ele>2250.424</ele>
        <time>2011-04-21T14:41:51Z</time>
      </trkpt>
      <trkpt lat="32.18506" lon="-5.6321">
        <ele>2259.004</ele>
        <time>2011-04-21T14:42:09Z</time>
      </trkpt>
      <trkpt lat="32.19155" lon="-5.63754">
        <ele>2285.08</ele>
        <time>2011-04-21T14:42:59Z</time>
      </trkpt>
      <trkpt lat="32.19254" lon="-5.63869">
        <ele>2284.221</ele>
        <time>2011-04-21T14:43:10Z</time>
      </trkpt>
      <trkpt lat="32.19332" lon="-5.64083">
        <ele>2283.864</ele>
        <time>2011-04-21T14:43:25Z</time>
      </trkpt>
      <trkpt lat="32.19464" lon="-5.64218">
        <ele>2281.575</ele>
        <time>2011-04-21T14:43:37Z</time>
      </trkpt>
      <trkpt lat="32.19634" lon="-5.64341">
        <ele>2277.686</ele>
        <time>2011-04-21T14:43:55Z</time>
      </trkpt>
      <trkpt lat="32.19663" lon="-5.64201">
        <ele>2263.933</ele>
        <time>2011-04-21T14:45:01Z</time>
      </trkpt>
      <trkpt lat="32.19646" lon="-5.64332">
        <ele>2273.948</ele>
        <time>2011-04-21T14:54:55Z</time>
      </trkpt>
      <trkpt lat="32.19317" lon="-5.64057">
        <ele>2283.665</ele>
        <time>2011-04-21T14:55:30Z</time>
      </trkpt>
      <trkpt lat="32.19184" lon="-5.6378">
        <ele>2287.158</ele>
        <time>2011-04-21T14:55:49Z</time>
      </trkpt>
      <trkpt lat="32.18459" lon="-5.63184">
        <ele>2253.198</ele>
        <time>2011-04-21T14:56:40Z</time>
      </trkpt>
      <trkpt lat="32.18056" lon="-5.63186">
        <ele>2238.671</ele>
        <time>2011-04-21T14:57:04Z</time>
      </trkpt>
      <trkpt lat="32.17831" lon="-5.63076">
        <ele>2227.462</ele>
        <time>2011-04-21T14:57:21Z</time>
      </trkpt>
      <trkpt lat="32.17541" lon="-5.63345">
        <ele>2212.501</ele>
        <time>2011-04-21T14:57:46Z</time>
      </trkpt>
      <trkpt lat="32.17439" lon="-5.63369">
        <ele>2205.66</ele>
        <time>2011-04-21T14:57:54Z</time>
      </trkpt>
      <trkpt lat="32.17303" lon="-5.63226">
        <ele>2198.499</ele>
        <time>2011-04-21T14:58:09Z</time>
      </trkpt>
      <trkpt lat="32.16604" lon="-5.6299">
        <ele>2193.796</ele>
        <time>2011-04-21T14:59:56Z</time>
      </trkpt>
    </trkseg>
  </trk>
</gpx>